Observation data for New Home on 08/14/2020      Previous  Date  Next       Current Mesonet Observations  Soil Data  Daily Summary Page  Observations in Plain Language
KNH1 140500Z 22008KT 28/10 A3001 RMK A01 T02750100  RH  033%=      5-min Rain = 0
KNH1 140501Z 22008KT 27/10 A3001 RMK A01 T02740099  RH  033%=      5-min Rain = 0
KNH1 140502Z 22008KT 27/10 A3001 RMK A01 T02740100  RH  034%=      5-min Rain = 0
KNH1 140503Z 22008KT 27/10 A3001 RMK A01 T02740100  RH  034%=      5-min Rain = 0
KNH1 140504Z 22008KT 27/10 A3001 RMK A01 T02740100  RH  034%=      5-min Rain = 0
KNH1 140505Z 22008KT 27/10 A3001 RMK A01 T02740100  RH  034%=      5-min Rain = 0
KNH1 140506Z 22008KT 27/10 A3001 RMK A01 T02740100  RH  034%=      5-min Rain = 0
KNH1 140507Z 22008KT 27/10 A3001 RMK A01 T02740100  RH  034%=      5-min Rain = 0
KNH1 140508Z 23008KT 27/10 A3001 RMK A01 T02740100  RH  034%=      5-min Rain = 0
KNH1 140509Z 23008KT 27/10 A3001 RMK A01 T02740100  RH  034%=      5-min Rain = 0
KNH1 140510Z 23008KT 27/10 A3001 RMK A01 T02740100  RH  034%=      5-min Rain = 0
KNH1 140511Z 23008KT 27/10 A3001 RMK A01 T02740100  RH  034%=      5-min Rain = 0
KNH1 140512Z 23007KT 27/10 A3001 RMK A01 T02740100  RH  034%=      5-min Rain = 0
KNH1 140513Z 23007KT 27/10 A3001 RMK A01 T02730100  RH  034%=      5-min Rain = 0
KNH1 140514Z 23007KT 27/10 A3001 RMK A01 T02740101  RH  034%=      5-min Rain = 0
KNH1 140515Z 23007KT 27/10 A30 RMK A01 T02730100  RH  034%=      5-min Rain = 0
KNH1 140516Z 23007KT 27/10 A3001 RMK A01 T02730100  RH  034%=      5-min Rain = 0
KNH1 140517Z 23007KT 27/10 A3001 RMK A01 T02720100  RH  034%=      5-min Rain = 0
KNH1 140518Z 23006KT 27/10 A30 RMK A01 T02720100  RH  034%=      5-min Rain = 0
KNH1 140519Z 22007KT 27/10 A30 RMK A01 T02710100  RH  034%=      5-min Rain = 0
KNH1 140520Z 23006KT 27/10 A3001 RMK A01 T02710100  RH  034%=      5-min Rain = 0
KNH1 140521Z 23007KT 27/10 A3001 RMK A01 T02710100  RH  034%=      5-min Rain = 0
KNH1 140522Z 22007KT 27/10 A3001 RMK A01 T02710099  RH  034%=      5-min Rain = 0
KNH1 140523Z 22007KT 27/10 A30 RMK A01 T02720099  RH  034%=      5-min Rain = 0
KNH1 140524Z 22007KT 27/10 A30 RMK A01 T02720099  RH  034%=      5-min Rain = 0
KNH1 140525Z 22007KT 27/10 A30 RMK A01 T02730099  RH  034%=      5-min Rain = 0
KNH1 140526Z 22007KT 27/10 A3001 RMK A01 T02730100  RH  034%=      5-min Rain = 0
KNH1 140527Z 22007KT 27/10 A3001 RMK A01 T02720100  RH  034%=      5-min Rain = 0
KNH1 140528Z 22007KT 27/10 A3001 RMK A01 T02710100  RH  034%=      5-min Rain = 0
KNH1 140529Z 22007KT 27/10 A3001 RMK A01 T02710101  RH  034%=      5-min Rain = 0
KNH1 140530Z 21007KT 27/10 A3001 RMK A01 T02710101  RH  034%=      5-min Rain = 0
KNH1 140531Z 22007KT 27/10 A3001 RMK A01 T02700101  RH  035%=      5-min Rain = 0
KNH1 140532Z 21007KT 27/10 A3001 RMK A01 T02700102  RH  035%=      5-min Rain = 0
KNH1 140533Z 21007KT 27/10 A3001 RMK A01 T02700102  RH  035%=      5-min Rain = 0
KNH1 140534Z 21007KT 27/10 A3001 RMK A01 T02700101  RH  035%=      5-min Rain = 0
KNH1 140535Z 21007KT 27/10 A3001 RMK A01 T02700102  RH  035%=      5-min Rain = 0
KNH1 140536Z 21007KT 27/10 A3001 RMK A01 T02700101  RH  035%=      5-min Rain = 0
KNH1 140537Z 21007KT 27/10 A3001 RMK A01 T02700102  RH  035%=      5-min Rain = 0
KNH1 140538Z 21007KT 27/10 A3001 RMK A01 T02700102  RH  035%=      5-min Rain = 0
KNH1 140539Z 21007KT 27/10 A3001 RMK A01 T02700102  RH  035%=      5-min Rain = 0
KNH1 140540Z 21007KT 27/10 A3001 RMK A01 T02690102  RH  035%=      5-min Rain = 0
KNH1 140541Z 21007KT 27/10 A3001 RMK A01 T02690103  RH  035%=      5-min Rain = 0
KNH1 140542Z 21007KT 27/10 A3001 RMK A01 T02700104  RH  035%=      5-min Rain = 0
KNH1 140543Z 21007KT 27/10 A3001 RMK A01 T02700104  RH  035%=      5-min Rain = 0
KNH1 140544Z 21007KT 27/10 A3001 RMK A01 T02700104  RH  035%=      5-min Rain = 0
KNH1 140545Z 21007KT 27/11 A3001 RMK A01 T02690105  RH  036%=      5-min Rain = 0
KNH1 140546Z 21006KT 27/11 A3001 RMK A01 T02690105  RH  036%=      5-min Rain = 0
KNH1 140547Z 21007KT 27/11 A3001 RMK A01 T02680105  RH  036%=      5-min Rain = 0
KNH1 140548Z 21007KT 27/11 A3001 RMK A01 T02670106  RH  036%=      5-min Rain = 0
KNH1 140549Z 21007KT 27/11 A3001 RMK A01 T02670106  RH  036%=      5-min Rain = 0
KNH1 140550Z 21007KT 27/11 A3001 RMK A01 T02660106  RH  037%=      5-min Rain = 0
KNH1 140551Z 21007KT 27/11 A3001 RMK A01 T02660106  RH  037%=      5-min Rain = 0
KNH1 140552Z 21007KT 27/11 A3001 RMK A01 T02660107  RH  037%=      5-min Rain = 0
KNH1 140553Z 21008KT 27/11 A3001 RMK A01 T02650107  RH  037%=      5-min Rain = 0
KNH1 140554Z 21008KT 27/11 A3001 RMK A01 T02650107  RH  037%=      5-min Rain = 0
KNH1 140555Z 21008KT 27/11 A3001 RMK A01 T02650106  RH  037%=      5-min Rain = 0
KNH1 140556Z 21008KT 27/11 A3001 RMK A01 T02650106  RH  037%=      5-min Rain = 0
KNH1 140557Z 21008KT 27/11 A3001 RMK A01 T02650105  RH  037%=      5-min Rain = 0
KNH1 140558Z 20008KT 27/11 A3001 RMK A01 T02650105  RH  037%=      5-min Rain = 0
KNH1 140559Z 20008KT 27/10 A3001 RMK A01 T02650104  RH  037%=      5-min Rain = 0
KNH1 140600Z 21008KT 27/11 A3001 RMK A01 T02650105  RH  036%=      5-min Rain = 0
KNH1 140601Z 21008KT 27/10 A3001 RMK A01 T02650104  RH  036%=      5-min Rain = 0
KNH1 140602Z 21008KT 27/10 A3001 RMK A01 T02650104  RH  036%=      5-min Rain = 0
KNH1 140603Z 21008KT 27/10 A3001 RMK A01 T02650104  RH  036%=      5-min Rain = 0
KNH1 140604Z 21008KT 27/10 A3001 RMK A01 T02650104  RH  036%=      5-min Rain = 0
KNH1 140605Z 21008KT 27/10 A3001 RMK A01 T02650103  RH  036%=      5-min Rain = 0
KNH1 140606Z 21007KT 27/10 A3001 RMK A01 T02650102  RH  036%=      5-min Rain = 0
KNH1 140607Z 21007KT 27/10 A3001 RMK A01 T02660102  RH  036%=      5-min Rain = 0
KNH1 140608Z 21008KT 27/10 A3001 RMK A01 T02670101  RH  035%=      5-min Rain = 0
KNH1 140609Z 21007KT 27/10 A3001 RMK A01 T02670100  RH  035%=      5-min Rain = 0
KNH1 140610Z 21007KT 27/10 A3001 RMK A01 T02680100  RH  035%=      5-min Rain = 0
KNH1 140611Z 21008KT 27/10 A3001 RMK A01 T02680100  RH  035%=      5-min Rain = 0
KNH1 140612Z 21007KT 27/10 A3001 RMK A01 T02670100  RH  035%=      5-min Rain = 0
KNH1 140613Z 21007KT 27/10 A3001 RMK A01 T02670099  RH  035%=      5-min Rain = 0
KNH1 140614Z 21007KT 27/10 A3001 RMK A01 T02670100  RH  035%=      5-min Rain = 0
KNH1 140615Z 21007KT 27/10 A3001 RMK A01 T02670100  RH  035%=      5-min Rain = 0
KNH1 140616Z 21007KT 27/10 A3001 RMK A01 T02670099  RH  035%=      5-min Rain = 0
KNH1 140617Z 21007KT 27/10 A3001 RMK A01 T02670099  RH  035%=      5-min Rain = 0
KNH1 140618Z 21008KT 27/10 A3001 RMK A01 T02670099  RH  035%=      5-min Rain = 0
KNH1 140619Z 21007KT 27/10 A3001 RMK A01 T02670099  RH  035%=      5-min Rain = 0
KNH1 140620Z 21008KT 27/10 A3001 RMK A01 T02670099  RH  035%=      5-min Rain = 0
KNH1 140621Z 21008KT 27/10 A3001 RMK A01 T02670099  RH  035%=      5-min Rain = 0
KNH1 140622Z 21007KT 27/10 A3001 RMK A01 T02670100  RH  035%=      5-min Rain = 0
KNH1 140623Z 21008KT 27/10 A3001 RMK A01 T02670099  RH  035%=      5-min Rain = 0
KNH1 140624Z 21007KT 27/10 A3001 RMK A01 T02670100  RH  035%=      5-min Rain = 0
KNH1 140625Z 21008KT 27/10 A3001 RMK A01 T02670099  RH  035%=      5-min Rain = 0
KNH1 140626Z 21008KT 27/10 A3001 RMK A01 T02670099  RH  035%=      5-min Rain = 0
KNH1 140627Z 21008KT 27/10 A3001 RMK A01 T02680100  RH  035%=      5-min Rain = 0
KNH1 140628Z 21008KT 27/10 A3001 RMK A01 T02680100  RH  035%=      5-min Rain = 0
KNH1 140629Z 21008KT 27/10 A3001 RMK A01 T02680099  RH  035%=      5-min Rain = 0
KNH1 140630Z 21008KT 27/10 A3001 RMK A01 T02690099  RH  034%=      5-min Rain = 0
KNH1 140631Z 21008KT 27/10 A3001 RMK A01 T02690099  RH  034%=      5-min Rain = 0
KNH1 140632Z 22009KT 27/10 A3001 RMK A01 T02690099  RH  034%=      5-min Rain = 0
KNH1 140633Z 21009KT 27/10 A3001 RMK A01 T02690100  RH  035%=      5-min Rain = 0
KNH1 140634Z 21009KT 27/10 A3001 RMK A01 T02680100  RH  035%=      5-min Rain = 0
KNH1 140635Z 21009KT 27/10 A3001 RMK A01 T02680100  RH  035%=      5-min Rain = 0
KNH1 140636Z 21009KT 27/10 A3001 RMK A01 T02680100  RH  035%=      5-min Rain = 0
KNH1 140637Z 21009KT 27/10 A3001 RMK A01 T02670100  RH  035%=      5-min Rain = 0
KNH1 140638Z 21009KT 27/10 A3001 RMK A01 T02670100  RH  035%=      5-min Rain = 0
KNH1 140639Z 22009KT 27/10 A3001 RMK A01 T02660100  RH  035%=      5-min Rain = 0
KNH1 140640Z 22009KT 27/10 A3001 RMK A01 T02650100  RH  035%=      5-min Rain = 0
KNH1 140641Z 21008KT 27/10 A3001 RMK A01 T02650101  RH  036%=      5-min Rain = 0
KNH1 140642Z 21008KT 26/10 A3001 RMK A01 T02640101  RH  036%=      5-min Rain = 0
KNH1 140643Z 21008KT 26/10 A3001 RMK A01 T02630101  RH  036%=      5-min Rain = 0
KNH1 140644Z 21008KT 26/10 A3001 RMK A01 T02630101  RH  036%=      5-min Rain = 0
KNH1 140645Z 21008KT 26/10 A3001 RMK A01 T02630101  RH  036%=      5-min Rain = 0
KNH1 140646Z 21008KT 26/10 A3001 RMK A01 T02630101  RH  036%=      5-min Rain = 0
KNH1 140647Z 21007KT 26/10 A3001 RMK A01 T02630101  RH  036%=      5-min Rain = 0
KNH1 140648Z 21008KT 26/10 A3001 RMK A01 T02640101  RH  036%=      5-min Rain = 0
KNH1 140649Z 21008KT 26/10 A3001 RMK A01 T02630101  RH  036%=      5-min Rain = 0
KNH1 140650Z 22009KT 26/10 A3001 RMK A01 T02630101  RH  036%=      5-min Rain = 0
KNH1 140651Z 21007KT 26/10 A3001 RMK A01 T02640101  RH  036%=      5-min Rain = 0
KNH1 140652Z 22008KT 26/10 A3001 RMK A01 T02640101  RH  036%=      5-min Rain = 0
KNH1 140653Z 22008KT 26/10 A3001 RMK A01 T02640101  RH  036%=      5-min Rain = 0
KNH1 140654Z 22008KT 26/10 A3001 RMK A01 T02630102  RH  036%=      5-min Rain = 0
KNH1 140655Z 22008KT 26/10 A3001 RMK A01 T02620102  RH  037%=      5-min Rain = 0
KNH1 140656Z 22008KT 26/10 A3001 RMK A01 T02600102  RH  037%=      5-min Rain = 0
KNH1 140657Z 22007KT 26/10 A3001 RMK A01 T02590102  RH  037%=      5-min Rain = 0
KNH1 140658Z 22007KT 26/10 A3001 RMK A01 T02580102  RH  037%=      5-min Rain = 0
KNH1 140659Z 22007KT 26/10 A3001 RMK A01 T02570102  RH  038%=      5-min Rain = 0
KNH1 140700Z 22007KT 26/10 A3001 RMK A01 T02570102  RH  038%=      5-min Rain = 0
KNH1 140701Z 22007KT 26/10 A3001 RMK A01 T02570102  RH  038%=      5-min Rain = 0
KNH1 140702Z 22007KT 26/10 A3001 RMK A01 T02570102  RH  038%=      5-min Rain = 0
KNH1 140703Z 22007KT 26/10 A3001 RMK A01 T02570103  RH  038%=      5-min Rain = 0
KNH1 140704Z 23007KT 26/10 A3001 RMK A01 T02560103  RH  038%=      5-min Rain = 0
KNH1 140705Z 23007KT 26/10 A3001 RMK A01 T02560103  RH  038%=      5-min Rain = 0
KNH1 140706Z 23007KT 26/10 A3001 RMK A01 T02550103  RH  038%=      5-min Rain = 0
KNH1 140707Z 23007KT 26/10 A3001 RMK A01 T02550103  RH  038%=      5-min Rain = 0
KNH1 140708Z 23007KT 26/10 A3001 RMK A01 T02550103  RH  038%=      5-min Rain = 0
KNH1 140709Z 23008KT 26/10 A3001 RMK A01 T02550103  RH  038%=      5-min Rain = 0
KNH1 140710Z 23007KT 26/10 A3001 RMK A01 T02550102  RH  038%=      5-min Rain = 0
KNH1 140711Z 23008KT 26/10 A3001 RMK A01 T02550102  RH  038%=      5-min Rain = 0
KNH1 140712Z 23008KT 26/10 A3001 RMK A01 T02550102  RH  038%=      5-min Rain = 0
KNH1 140713Z 23008KT 26/10 A3001 RMK A01 T02560102  RH  038%=      5-min Rain = 0
KNH1 140714Z 23008KT 26/10 A3001 RMK A01 T02560102  RH  038%=      5-min Rain = 0
KNH1 140715Z 23007KT 26/10 A3001 RMK A01 T02560102  RH  038%=      5-min Rain = 0
KNH1 140716Z 22007KT 26/10 A3001 RMK A01 T02560102  RH  038%=      5-min Rain = 0
KNH1 140717Z 22007KT 26/10 A3001 RMK A01 T02550102  RH  038%=      5-min Rain = 0
KNH1 140718Z 22007KT 26/10 A3001 RMK A01 T02550103  RH  038%=      5-min Rain = 0
KNH1 140719Z 22006KT 25/10 A3001 RMK A01 T02540103  RH  039%=      5-min Rain = 0
KNH1 140720Z 22006KT 25/10 A3001 RMK A01 T02530103  RH  039%=      5-min Rain = 0
KNH1 140721Z 22006KT 25/10 A3001 RMK A01 T02530103  RH  039%=      5-min Rain = 0
KNH1 140722Z 22006KT 25/10 A3001 RMK A01 T02510103  RH  039%=      5-min Rain = 0
KNH1 140723Z 22006KT 25/10 A3001 RMK A01 T02510104  RH  039%=      5-min Rain = 0
KNH1 140724Z 22006KT 25/10 A3001 RMK A01 T02500104  RH  040%=      5-min Rain = 0
KNH1 140725Z 22006KT 25/10 A3001 RMK A01 T02500104  RH  040%=      5-min Rain = 0
KNH1 140726Z 22006KT 25/11 A3001 RMK A01 T02500105  RH  040%=      5-min Rain = 0
KNH1 140727Z 22006KT 25/11 A3001 RMK A01 T02500105  RH  040%=      5-min Rain = 0
KNH1 140728Z 21006KT 25/11 A3001 RMK A01 T02490105  RH  040%=      5-min Rain = 0
KNH1 140729Z 21006KT 25/11 A3001 RMK A01 T02490105  RH  040%=      5-min Rain = 0
KNH1 140730Z 21006KT 25/11 A3001 RMK A01 T02490105  RH  040%=      5-min Rain = 0
KNH1 140731Z 21005KT 25/11 A3001 RMK A01 T02490106  RH  040%=      5-min Rain = 0
KNH1 140732Z 21005KT 25/11 A3001 RMK A01 T02490106  RH  041%=      5-min Rain = 0
KNH1 140733Z 21006KT 25/11 A3001 RMK A01 T02490106  RH  041%=      5-min Rain = 0
KNH1 140734Z 21005KT 25/11 A3001 RMK A01 T02490107  RH  041%=      5-min Rain = 0
KNH1 140735Z 22005KT 25/11 A3001 RMK A01 T02490107  RH  041%=      5-min Rain = 0
KNH1 140736Z 22005KT 25/11 A3002 RMK A01 T02480107  RH  041%=      5-min Rain = 0
KNH1 140737Z 22005KT 25/11 A3002 RMK A01 T02490107  RH  041%=      5-min Rain = 0
KNH1 140738Z 21005KT 25/11 A3002 RMK A01 T02480107  RH  041%=      5-min Rain = 0
KNH1 140739Z 21005KT 25/11 A3002 RMK A01 T02480107  RH  041%=      5-min Rain = 0
KNH1 140740Z 21005KT 25/11 A3002 RMK A01 T02470107  RH  041%=      5-min Rain = 0
KNH1 140741Z 21006KT 25/11 A3002 RMK A01 T02470107  RH  041%=      5-min Rain = 0
KNH1 140742Z 22006KT 25/11 A3002 RMK A01 T02460107  RH  042%=      5-min Rain = 0
KNH1 140743Z 22006KT 25/11 A3002 RMK A01 T02450107  RH  042%=      5-min Rain = 0
KNH1 140744Z 22006KT 25/11 A3002 RMK A01 T02450107  RH  042%=      5-min Rain = 0
KNH1 140745Z 22006KT 25/11 A3002 RMK A01 T02450108  RH  042%=      5-min Rain = 0
KNH1 140746Z 22006KT 24/11 A3002 RMK A01 T02440108  RH  042%=      5-min Rain = 0
KNH1 140747Z 22006KT 24/11 A3002 RMK A01 T02440107  RH  042%=      5-min Rain = 0
KNH1 140748Z 22006KT 24/11 A3002 RMK A01 T02430108  RH  042%=      5-min Rain = 0
KNH1 140749Z 22006KT 24/11 A3002 RMK A01 T02430108  RH  043%=      5-min Rain = 0
KNH1 140750Z 23006KT 24/11 A3002 RMK A01 T02420108  RH  043%=      5-min Rain = 0
KNH1 140751Z 23006KT 24/11 A3002 RMK A01 T02420108  RH  043%=      5-min Rain = 0
KNH1 140752Z 23006KT 24/11 A3002 RMK A01 T02410108  RH  043%=      5-min Rain = 0
KNH1 140753Z 23006KT 24/11 A3002 RMK A01 T02400108  RH  043%=      5-min Rain = 0
KNH1 140754Z 23006KT 24/11 A3002 RMK A01 T02400109  RH  043%=      5-min Rain = 0
KNH1 140755Z 23006KT 24/11 A3002 RMK A01 T02400108  RH  044%=      5-min Rain = 0
KNH1 140756Z 23006KT 24/11 A3002 RMK A01 T02390108  RH  044%=      5-min Rain = 0
KNH1 140757Z 23007KT 24/11 A3002 RMK A01 T02390109  RH  044%=      5-min Rain = 0
KNH1 140758Z 23007KT 24/11 A3002 RMK A01 T02390109  RH  044%=      5-min Rain = 0
KNH1 140759Z 22007KT 24/11 A3002 RMK A01 T02390109  RH  044%=      5-min Rain = 0
KNH1 140800Z 22007KT 24/11 A3002 RMK A01 T02390109  RH  044%=      5-min Rain = 0
KNH1 140801Z 22007KT 24/11 A3002 RMK A01 T02390109  RH  044%=      5-min Rain = 0
KNH1 140802Z 22007KT 24/11 A3002 RMK A01 T02390109  RH  044%=      5-min Rain = 0
KNH1 140803Z 22008KT 24/11 A3002 RMK A01 T02390109  RH  044%=      5-min Rain = 0
KNH1 140804Z 22007KT 24/11 A3002 RMK A01 T02400108  RH  043%=      5-min Rain = 0
KNH1 140805Z 22007KT 24/11 A3002 RMK A01 T02410108  RH  043%=      5-min Rain = 0
KNH1 140806Z 22007KT 24/11 A3002 RMK A01 T02410108  RH  043%=      5-min Rain = 0
KNH1 140807Z 22008KT 24/11 A3002 RMK A01 T02420107  RH  043%=      5-min Rain = 0
KNH1 140808Z 22008KT 24/11 A3002 RMK A01 T02430107  RH  042%=      5-min Rain = 0
KNH1 140809Z 22008KT 24/11 A3002 RMK A01 T02440107  RH  042%=      5-min Rain = 0
KNH1 140810Z 22008KT 25/11 A3001 RMK A01 T02450107  RH  042%=      5-min Rain = 0
KNH1 140811Z 22008KT 25/11 A3001 RMK A01 T02460106  RH  041%=      5-min Rain = 0
KNH1 140812Z 22008KT 25/11 A3001 RMK A01 T02470106  RH  041%=      5-min Rain = 0
KNH1 140813Z 22008KT 25/11 A3001 RMK A01 T02480106  RH  041%=      5-min Rain = 0
KNH1 140814Z 22008KT 25/11 A3001 RMK A01 T02490106  RH  041%=      5-min Rain = 0
KNH1 140815Z 22008KT 25/11 A3001 RMK A01 T02490106  RH  041%=      5-min Rain = 0
KNH1 140816Z 22008KT 25/11 A3001 RMK A01 T02490106  RH  040%=      5-min Rain = 0
KNH1 140817Z 22008KT 25/11 A3001 RMK A01 T02490106  RH  041%=      5-min Rain = 0
KNH1 140818Z 22008KT 25/11 A3001 RMK A01 T02490106  RH  040%=      5-min Rain = 0
KNH1 140819Z 22008KT 25/11 A3001 RMK A01 T02490106  RH  040%=      5-min Rain = 0
KNH1 140820Z 22008KT 25/11 A3001 RMK A01 T02490106  RH  041%=      5-min Rain = 0
KNH1 140821Z 22008KT 25/11 A3001 RMK A01 T02490106  RH  041%=      5-min Rain = 0
KNH1 140822Z 22007KT 25/11 A3001 RMK A01 T02480106  RH  041%=      5-min Rain = 0
KNH1 140823Z 22007KT 25/11 A3001 RMK A01 T02490106  RH  041%=      5-min Rain = 0
KNH1 140824Z 22007KT 25/11 A3001 RMK A01 T02480106  RH  041%=      5-min Rain = 0
KNH1 140825Z 22008KT 25/11 A3002 RMK A01 T02490106  RH  041%=      5-min Rain = 0
KNH1 140826Z 23007KT 25/11 A3002 RMK A01 T02480106  RH  041%=      5-min Rain = 0
KNH1 140827Z 23007KT 25/11 A3002 RMK A01 T02480106  RH  041%=      5-min Rain = 0
KNH1 140828Z 23007KT 25/11 A3002 RMK A01 T02480106  RH  041%=      5-min Rain = 0
KNH1 140829Z 23008KT 25/11 A3002 RMK A01 T02480105  RH  041%=      5-min Rain = 0
KNH1 140830Z 23007KT 25/11 A3002 RMK A01 T02480105  RH  041%=      5-min Rain = 0
KNH1 140831Z 23008KT 25/11 A3002 RMK A01 T02480105  RH  040%=      5-min Rain = 0
KNH1 140832Z 23008KT 25/11 A3002 RMK A01 T02480105  RH  040%=      5-min Rain = 0
KNH1 140833Z 23008KT 25/11 A3002 RMK A01 T02480105  RH  040%=      5-min Rain = 0
KNH1 140834Z 23007KT 25/11 A3001 RMK A01 T02480105  RH  040%=      5-min Rain = 0
KNH1 140835Z 23007KT 25/11 A3001 RMK A01 T02480105  RH  041%=      5-min Rain = 0
KNH1 140836Z 23007KT 25/11 A3001 RMK A01 T02480105  RH  041%=      5-min Rain = 0
KNH1 140837Z 23007KT 25/11 A3001 RMK A01 T02480105  RH  041%=      5-min Rain = 0
KNH1 140838Z 22007KT 25/11 A3001 RMK A01 T02480105  RH  041%=      5-min Rain = 0
KNH1 140839Z 22007KT 25/11 A3001 RMK A01 T02470105  RH  041%=      5-min Rain = 0
KNH1 140840Z 22007KT 25/11 A3001 RMK A01 T02470105  RH  041%=      5-min Rain = 0
KNH1 140841Z 22007KT 25/11 A3001 RMK A01 T02460105  RH  041%=      5-min Rain = 0
KNH1 140842Z 22007KT 25/11 A3001 RMK A01 T02460105  RH  041%=      5-min Rain = 0
KNH1 140843Z 21007KT 25/11 A3001 RMK A01 T02450105  RH  041%=      5-min Rain = 0
KNH1 140844Z 22007KT 24/11 A3001 RMK A01 T02440106  RH  042%=      5-min Rain = 0
KNH1 140845Z 22007KT 24/11 A3001 RMK A01 T02440106  RH  042%=      5-min Rain = 0
KNH1 140846Z 22007KT 24/11 A3001 RMK A01 T02440106  RH  042%=      5-min Rain = 0
KNH1 140847Z 22007KT 24/11 A3001 RMK A01 T02430106  RH  042%=      5-min Rain = 0
KNH1 140848Z 22007KT 24/11 A3001 RMK A01 T02430106  RH  042%=      5-min Rain = 0
KNH1 140849Z 23008KT 24/11 A3001 RMK A01 T02430106  RH  042%=      5-min Rain = 0
KNH1 140850Z 22007KT 24/11 A3001 RMK A01 T02430106  RH  042%=      5-min Rain = 0
KNH1 140851Z 22007KT 24/11 A3001 RMK A01 T02430106  RH  042%=      5-min Rain = 0
KNH1 140852Z 23007KT 24/11 A3001 RMK A01 T02430106  RH  042%=      5-min Rain = 0
KNH1 140853Z 23008KT 24/11 A3001 RMK A01 T02420106  RH  042%=      5-min Rain = 0
KNH1 140854Z 23008KT 24/11 A3001 RMK A01 T02420106  RH  042%=      5-min Rain = 0
KNH1 140855Z 23008KT 24/11 A3001 RMK A01 T02430106  RH  042%=      5-min Rain = 0
KNH1 140856Z 23008KT 24/11 A3001 RMK A01 T02420106  RH  042%=      5-min Rain = 0
KNH1 140857Z 23008KT 24/11 A3001 RMK A01 T02420106  RH  042%=      5-min Rain = 0
KNH1 140858Z 23008KT 24/11 A3001 RMK A01 T02420106  RH  042%=      5-min Rain = 0
KNH1 140859Z 23007KT 24/11 A3001 RMK A01 T02420106  RH  042%=      5-min Rain = 0
KNH1 140900Z 23008KT 24/11 A3001 RMK A01 T02420106  RH  042%=      5-min Rain = 0
KNH1 140901Z 23007KT 24/11 A3001 RMK A01 T02420106  RH  043%=      5-min Rain = 0
KNH1 140902Z 23007KT 24/11 A3001 RMK A01 T02420106  RH  042%=      5-min Rain = 0
KNH1 140903Z 23007KT 24/11 A3001 RMK A01 T02420106  RH  043%=      5-min Rain = 0
KNH1 140904Z 23008KT 24/11 A3001 RMK A01 T02410106  RH  042%=      5-min Rain = 0
KNH1 140905Z 23008KT 24/11 A3001 RMK A01 T02410106  RH  043%=      5-min Rain = 0
KNH1 140906Z 23008KT 24/11 A3001 RMK A01 T02410107  RH  043%=      5-min Rain = 0
KNH1 140907Z 23008KT 24/11 A3001 RMK A01 T02410107  RH  043%=      5-min Rain = 0
KNH1 140908Z 23008KT 24/11 A3001 RMK A01 T02410107  RH  043%=      5-min Rain = 0
KNH1 140909Z 23008KT 24/11 A3001 RMK A01 T02410107  RH  043%=      5-min Rain = 0
KNH1 140910Z 23008KT 24/11 A3001 RMK A01 T02410107  RH  043%=      5-min Rain = 0
KNH1 140911Z 23007KT 24/11 A3001 RMK A01 T02410107  RH  043%=      5-min Rain = 0
KNH1 140912Z 23007KT 24/11 A3001 RMK A01 T02410107  RH  043%=      5-min Rain = 0
KNH1 140913Z 23007KT 24/11 A3001 RMK A01 T02410107  RH  043%=      5-min Rain = 0
KNH1 140914Z 23008KT 24/11 A3001 RMK A01 T02420107  RH  043%=      5-min Rain = 0
KNH1 140915Z 23007KT 24/11 A3001 RMK A01 T02420107  RH  043%=      5-min Rain = 0
KNH1 140916Z 23007KT 24/11 A3001 RMK A01 T02430108  RH  043%=      5-min Rain = 0
KNH1 140917Z 23007KT 24/11 A3001 RMK A01 T02430108  RH  043%=      5-min Rain = 0
KNH1 140918Z 23007KT 24/11 A3001 RMK A01 T02420108  RH  043%=      5-min Rain = 0
KNH1 140919Z 23006KT 24/11 A3001 RMK A01 T02420108  RH  043%=      5-min Rain = 0
KNH1 140920Z 23007KT 24/11 A3001 RMK A01 T02420108  RH  043%=      5-min Rain = 0
KNH1 140921Z 23007KT 24/11 A3001 RMK A01 T02410108  RH  043%=      5-min Rain = 0
KNH1 140922Z 23007KT 24/11 A3001 RMK A01 T02410108  RH  043%=      5-min Rain = 0
KNH1 140923Z 23007KT 24/11 A3001 RMK A01 T02400108  RH  043%=      5-min Rain = 0
KNH1 140924Z 24006KT 24/11 A3002 RMK A01 T02390108  RH  044%=      5-min Rain = 0
KNH1 140925Z 24005KT 24/11 A3002 RMK A01 T02390108  RH  044%=      5-min Rain = 0
KNH1 140926Z 24005KT 24/11 A3002 RMK A01 T02390108  RH  044%=      5-min Rain = 0
KNH1 140927Z 24006KT 24/11 A3002 RMK A01 T02390108  RH  044%=      5-min Rain = 0
KNH1 140928Z 24006KT 24/11 A3002 RMK A01 T02390108  RH  044%=      5-min Rain = 0
KNH1 140929Z 24006KT 24/11 A3002 RMK A01 T02380108  RH  044%=      5-min Rain = 0
KNH1 140930Z 24006KT 24/11 A3002 RMK A01 T02380108  RH  044%=      5-min Rain = 0
KNH1 140931Z 23006KT 24/11 A3002 RMK A01 T02370108  RH  044%=      5-min Rain = 0
KNH1 140932Z 24006KT 24/11 A3002 RMK A01 T02380108  RH  044%=      5-min Rain = 0
KNH1 140933Z 23006KT 24/11 A3002 RMK A01 T02370108  RH  044%=      5-min Rain = 0
KNH1 140934Z 23006KT 24/11 A3002 RMK A01 T02360108  RH  044%=      5-min Rain = 0
KNH1 140935Z 24006KT 24/11 A3002 RMK A01 T02360108  RH  044%=      5-min Rain = 0
KNH1 140936Z 24006KT 24/11 A3002 RMK A01 T02360108  RH  045%=      5-min Rain = 0
KNH1 140937Z 24006KT 24/11 A3002 RMK A01 T02360108  RH  045%=      5-min Rain = 0
KNH1 140938Z 24006KT 24/11 A3002 RMK A01 T02350109  RH  045%=      5-min Rain = 0
KNH1 140939Z 24007KT 24/11 A3002 RMK A01 T02350108  RH  045%=      5-min Rain = 0
KNH1 140940Z 25007KT 23/11 A3002 RMK A01 T02340108  RH  045%=      5-min Rain = 0
KNH1 140941Z 25007KT 23/11 A3002 RMK A01 T02340109  RH  045%=      5-min Rain = 0
KNH1 140942Z 25007KT 23/11 A3002 RMK A01 T02330109  RH  045%=      5-min Rain = 0
KNH1 140943Z 25007KT 23/11 A3002 RMK A01 T02330109  RH  046%=      5-min Rain = 0
KNH1 140944Z 25008KT 23/11 A3002 RMK A01 T02320109  RH  046%=      5-min Rain = 0
KNH1 140945Z 25008KT 23/11 A3002 RMK A01 T02320109  RH  046%=      5-min Rain = 0
KNH1 140946Z 26008KT 23/11 A3002 RMK A01 T02320109  RH  046%=      5-min Rain = 0
KNH1 140947Z 25008KT 23/11 A3002 RMK A01 T02320110  RH  046%=      5-min Rain = 0
KNH1 140948Z 25008KT 23/11 A3002 RMK A01 T02320109  RH  046%=      5-min Rain = 0
KNH1 140949Z 25007KT 23/11 A3002 RMK A01 T02320110  RH  046%=      5-min Rain = 0
KNH1 140950Z 25008KT 23/11 A3002 RMK A01 T02320109  RH  046%=      5-min Rain = 0
KNH1 140951Z 25008KT 23/11 A3002 RMK A01 T02320110  RH  046%=      5-min Rain = 0
KNH1 140952Z 25007KT 23/11 A3002 RMK A01 T02320110  RH  046%=      5-min Rain = 0
KNH1 140953Z 25008KT 23/11 A3002 RMK A01 T02320110  RH  046%=      5-min Rain = 0
KNH1 140954Z 25008KT 23/11 A3002 RMK A01 T02330110  RH  046%=      5-min Rain = 0
KNH1 140955Z 25007KT 23/11 A3002 RMK A01 T02330110  RH  046%=      5-min Rain = 0
KNH1 140956Z 25007KT 23/11 A3002 RMK A01 T02330110  RH  046%=      5-min Rain = 0
KNH1 140957Z 25007KT 23/11 A3002 RMK A01 T02330111  RH  046%=      5-min Rain = 0
KNH1 140958Z 25007KT 23/11 A3002 RMK A01 T02330110  RH  046%=      5-min Rain = 0
KNH1 140959Z 26007KT 23/11 A3002 RMK A01 T02330111  RH  046%=      5-min Rain = 0
KNH1 141000Z 26007KT 23/11 A3002 RMK A01 T02330111  RH  046%=      5-min Rain = 0
KNH1 141001Z 26007KT 23/11 A3002 RMK A01 T02330111  RH  046%=      5-min Rain = 0
KNH1 141002Z 26007KT 23/11 A3002 RMK A01 T02330111  RH  046%=      5-min Rain = 0
KNH1 141003Z 26007KT 23/11 A3002 RMK A01 T02330111  RH  046%=      5-min Rain = 0
KNH1 141004Z 25006KT 23/11 A3002 RMK A01 T02340111  RH  046%=      5-min Rain = 0
KNH1 141005Z 25006KT 23/11 A3002 RMK A01 T02340111  RH  046%=      5-min Rain = 0
KNH1 141006Z 25006KT 24/11 A3002 RMK A01 T02350111  RH  046%=      5-min Rain = 0
KNH1 141007Z 25006KT 24/11 A3002 RMK A01 T02350111  RH  046%=      5-min Rain = 0
KNH1 141008Z 25006KT 24/11 A3002 RMK A01 T02350111  RH  046%=      5-min Rain = 0
KNH1 141009Z 25006KT 23/11 A3002 RMK A01 T02340111  RH  046%=      5-min Rain = 0
KNH1 141010Z 25006KT 23/11 A3002 RMK A01 T02340111  RH  046%=      5-min Rain = 0
KNH1 141011Z 25006KT 23/11 A3002 RMK A01 T02340111  RH  046%=      5-min Rain = 0
KNH1 141012Z 26006KT 23/11 A3002 RMK A01 T02340111  RH  046%=      5-min Rain = 0
KNH1 141013Z 26005KT 23/11 A3002 RMK A01 T02340111  RH  046%=      5-min Rain = 0
KNH1 141014Z 26006KT 23/11 A3002 RMK A01 T02330112  RH  046%=      5-min Rain = 0
KNH1 141015Z 26005KT 23/11 A3002 RMK A01 T02320112  RH  047%=      5-min Rain = 0
KNH1 141016Z 26005KT 23/11 A3002 RMK A01 T02320111  RH  047%=      5-min Rain = 0
KNH1 141017Z 26005KT 23/11 A3002 RMK A01 T02310112  RH  047%=      5-min Rain = 0
KNH1 141018Z 26006KT 23/11 A3002 RMK A01 T02310111  RH  047%=      5-min Rain = 0
KNH1 141019Z 26006KT 23/11 A3002 RMK A01 T02310112  RH  047%=      5-min Rain = 0
KNH1 141020Z 26006KT 23/11 A3002 RMK A01 T02310112  RH  047%=      5-min Rain = 0
KNH1 141021Z 25005KT 23/11 A3002 RMK A01 T02300111  RH  047%=      5-min Rain = 0
KNH1 141022Z 25006KT 23/11 A3002 RMK A01 T02310112  RH  047%=      5-min Rain = 0
KNH1 141023Z 25006KT 23/11 A3002 RMK A01 T02300111  RH  047%=      5-min Rain = 0
KNH1 141024Z 25006KT 23/11 A3002 RMK A01 T02300111  RH  047%=      5-min Rain = 0
KNH1 141025Z 25006KT 23/11 A3002 RMK A01 T02300111  RH  047%=      5-min Rain = 0
KNH1 141026Z 26006KT 23/11 A3002 RMK A01 T02300111  RH  047%=      5-min Rain = 0
KNH1 141027Z 26006KT 23/11 A3002 RMK A01 T02300111  RH  047%=      5-min Rain = 0
KNH1 141028Z 26006KT 23/11 A3002 RMK A01 T02290111  RH  047%=      5-min Rain = 0
KNH1 141029Z 26006KT 23/11 A3002 RMK A01 T02280112  RH  048%=      5-min Rain = 0
KNH1 141030Z 26006KT 23/11 A3002 RMK A01 T02270111  RH  048%=      5-min Rain = 0
KNH1 141031Z 26006KT 23/11 A3002 RMK A01 T02270111  RH  048%=      5-min Rain = 0
KNH1 141032Z 26006KT 23/11 A3002 RMK A01 T02270112  RH  048%=      5-min Rain = 0
KNH1 141033Z 26006KT 23/11 A3002 RMK A01 T02270111  RH  048%=      5-min Rain = 0
KNH1 141034Z 26006KT 23/11 A3002 RMK A01 T02260111  RH  048%=      5-min Rain = 0
KNH1 141035Z 26006KT 23/11 A3002 RMK A01 T02260111  RH  048%=      5-min Rain = 0
KNH1 141036Z 26006KT 23/11 A3002 RMK A01 T02260111  RH  048%=      5-min Rain = 0
KNH1 141037Z 25006KT 23/11 A3002 RMK A01 T02260111  RH  048%=      5-min Rain = 0
KNH1 141038Z 25006KT 23/11 A3002 RMK A01 T02260112  RH  048%=      5-min Rain = 0
KNH1 141039Z 25006KT 23/11 A3002 RMK A01 T02260112  RH  048%=      5-min Rain = 0
KNH1 141040Z 25006KT 23/11 A3002 RMK A01 T02270112  RH  048%=      5-min Rain = 0
KNH1 141041Z 25006KT 23/11 A3002 RMK A01 T02270112  RH  048%=      5-min Rain = 0
KNH1 141042Z 25006KT 23/11 A3002 RMK A01 T02270112  RH  048%=      5-min Rain = 0
KNH1 141043Z 25006KT 23/11 A3002 RMK A01 T02270112  RH  048%=      5-min Rain = 0
KNH1 141044Z 25006KT 23/11 A3002 RMK A01 T02270112  RH  048%=      5-min Rain = 0
KNH1 141045Z 25006KT 23/11 A3002 RMK A01 T02270112  RH  048%=      5-min Rain = 0
KNH1 141046Z 25006KT 23/11 A3002 RMK A01 T02270112  RH  048%=      5-min Rain = 0
KNH1 141047Z 26005KT 23/11 A3003 RMK A01 T02270113  RH  048%=      5-min Rain = 0
KNH1 141048Z 25005KT 23/11 A3003 RMK A01 T02260112  RH  049%=      5-min Rain = 0
KNH1 141049Z 26005KT 23/11 A3003 RMK A01 T02260112  RH  049%=      5-min Rain = 0
KNH1 141050Z 26005KT 23/11 A3003 RMK A01 T02250113  RH  049%=      5-min Rain = 0
KNH1 141051Z 26005KT 23/11 A3003 RMK A01 T02250113  RH  049%=      5-min Rain = 0
KNH1 141052Z 26005KT 22/11 A3003 RMK A01 T02240112  RH  049%=      5-min Rain = 0
KNH1 141053Z 26005KT 22/11 A3003 RMK A01 T02230112  RH  049%=      5-min Rain = 0
KNH1 141054Z 26005KT 22/11 A3003 RMK A01 T02230112  RH  049%=      5-min Rain = 0
KNH1 141055Z 26005KT 22/11 A3003 RMK A01 T02230112  RH  049%=      5-min Rain = 0
KNH1 141056Z 26005KT 22/11 A3003 RMK A01 T02220112  RH  050%=      5-min Rain = 0
KNH1 141057Z 26005KT 22/11 A3003 RMK A01 T02220112  RH  050%=      5-min Rain = 0
KNH1 141058Z 26005KT 22/11 A3003 RMK A01 T02220113  RH  050%=      5-min Rain = 0
KNH1 141059Z 26005KT 22/11 A3003 RMK A01 T02210112  RH  050%=      5-min Rain = 0
KNH1 141100Z 26005KT 22/11 A3003 RMK A01 T02210112  RH  050%=      5-min Rain = 0
KNH1 141101Z 26005KT 22/11 A3003 RMK A01 T02210112  RH  050%=      5-min Rain = 0
KNH1 141102Z 26005KT 22/11 A3003 RMK A01 T02200112  RH  050%=      5-min Rain = 0
KNH1 141103Z 26005KT 22/11 A3003 RMK A01 T02200112  RH  050%=      5-min Rain = 0
KNH1 141104Z 26005KT 22/11 A3003 RMK A01 T02200111  RH  050%=      5-min Rain = 0
KNH1 141105Z 26005KT 22/11 A3003 RMK A01 T02190111  RH  050%=      5-min Rain = 0
KNH1 141106Z 26005KT 22/11 A3003 RMK A01 T02190111  RH  050%=      5-min Rain = 0
KNH1 141107Z 26005KT 22/11 A3003 RMK A01 T02180111  RH  051%=      5-min Rain = 0
KNH1 141108Z 26005KT 22/11 A3003 RMK A01 T02170111  RH  051%=      5-min Rain = 0
KNH1 141109Z 26006KT 22/11 A3003 RMK A01 T02160111  RH  051%=      5-min Rain = 0
KNH1 141110Z 26006KT 22/11 A3003 RMK A01 T02160111  RH  051%=      5-min Rain = 0
KNH1 141111Z 26006KT 22/11 A3003 RMK A01 T02160111  RH  051%=      5-min Rain = 0
KNH1 141112Z 26006KT 22/11 A3003 RMK A01 T02150111  RH  051%=      5-min Rain = 0
KNH1 141113Z 26006KT 21/11 A3003 RMK A01 T02140110  RH  051%=      5-min Rain = 0
KNH1 141114Z 25006KT 21/11 A3003 RMK A01 T02140110  RH  052%=      5-min Rain = 0
KNH1 141115Z 25006KT 21/11 A3003 RMK A01 T02140110  RH  052%=      5-min Rain = 0
KNH1 141116Z 25006KT 21/11 A3003 RMK A01 T02140111  RH  052%=      5-min Rain = 0
KNH1 141117Z 25006KT 22/11 A3003 RMK A01 T02150111  RH  052%=      5-min Rain = 0
KNH1 141118Z 24007KT 22/11 A3003 RMK A01 T02160112  RH  051%=      5-min Rain = 0
KNH1 141119Z 24007KT 22/11 A3002 RMK A01 T02170112  RH  051%=      5-min Rain = 0
KNH1 141120Z 24007KT 22/11 A3002 RMK A01 T02170111  RH  051%=      5-min Rain = 0
KNH1 141121Z 24007KT 22/11 A3002 RMK A01 T02170112  RH  051%=      5-min Rain = 0
KNH1 141122Z 24007KT 22/11 A3002 RMK A01 T02170112  RH  051%=      5-min Rain = 0
KNH1 141123Z 23007KT 22/11 A3002 RMK A01 T02180112  RH  051%=      5-min Rain = 0
KNH1 141124Z 23007KT 22/11 A3002 RMK A01 T02180112  RH  051%=      5-min Rain = 0
KNH1 141125Z 24007KT 22/11 A3002 RMK A01 T02180112  RH  051%=      5-min Rain = 0
KNH1 141126Z 24006KT 22/11 A3002 RMK A01 T02180112  RH  051%=      5-min Rain = 0
KNH1 141127Z 24006KT 22/11 A3002 RMK A01 T02180113  RH  051%=      5-min Rain = 0
KNH1 141128Z 24006KT 22/11 A3003 RMK A01 T02190113  RH  051%=      5-min Rain = 0
KNH1 141129Z 25006KT 22/11 A3003 RMK A01 T02190113  RH  051%=      5-min Rain = 0
KNH1 141130Z 25006KT 22/11 A3003 RMK A01 T02190113  RH  051%=      5-min Rain = 0
KNH1 141131Z 25006KT 22/11 A3003 RMK A01 T02180113  RH  051%=      5-min Rain = 0
KNH1 141132Z 26006KT 22/11 A3003 RMK A01 T02170112  RH  051%=      5-min Rain = 0
KNH1 141133Z 26006KT 22/11 A3003 RMK A01 T02160112  RH  052%=      5-min Rain = 0
KNH1 141134Z 25006KT 22/11 A3003 RMK A01 T02150112  RH  052%=      5-min Rain = 0
KNH1 141135Z 25006KT 22/11 A3003 RMK A01 T02150113  RH  052%=      5-min Rain = 0
KNH1 141136Z 25006KT 22/11 A3003 RMK A01 T02160113  RH  052%=      5-min Rain = 0
KNH1 141137Z 25006KT 22/11 A3003 RMK A01 T02160113  RH  052%=      5-min Rain = 0
KNH1 141138Z 25006KT 22/11 A3003 RMK A01 T02160113  RH  052%=      5-min Rain = 0
KNH1 141139Z 26006KT 22/11 A3003 RMK A01 T02160113  RH  052%=      5-min Rain = 0
KNH1 141140Z 26006KT 22/11 A3003 RMK A01 T02160113  RH  052%=      5-min Rain = 0
KNH1 141141Z 26005KT 22/11 A3003 RMK A01 T02160113  RH  052%=      5-min Rain = 0
KNH1 141142Z 26006KT 22/11 A3003 RMK A01 T02150113  RH  052%=      5-min Rain = 0
KNH1 141143Z 26006KT 22/11 A3003 RMK A01 T02150113  RH  052%=      5-min Rain = 0
KNH1 141144Z 25006KT 21/11 A3003 RMK A01 T02140113  RH  052%=      5-min Rain = 0
KNH1 141145Z 25006KT 21/11 A3003 RMK A01 T02140113  RH  053%=      5-min Rain = 0
KNH1 141146Z 25006KT 21/11 A3003 RMK A01 T02140113  RH  053%=      5-min Rain = 0
KNH1 141147Z 25006KT 21/11 A3003 RMK A01 T02140114  RH  053%=      5-min Rain = 0
KNH1 141148Z 25006KT 21/11 A3003 RMK A01 T02140114  RH  053%=      5-min Rain = 0
KNH1 141149Z 25006KT 21/11 A3003 RMK A01 T02140114  RH  053%=      5-min Rain = 0
KNH1 141150Z 26006KT 21/11 A3003 RMK A01 T02140114  RH  053%=      5-min Rain = 0
KNH1 141151Z 25006KT 21/11 A3003 RMK A01 T02140114  RH  053%=      5-min Rain = 0
KNH1 141152Z 25006KT 21/11 A3003 RMK A01 T02140114  RH  053%=      5-min Rain = 0
KNH1 141153Z 26006KT 21/11 A3003 RMK A01 T02140114  RH  053%=      5-min Rain = 0
KNH1 141154Z 26006KT 21/11 A3003 RMK A01 T02140114  RH  053%=      5-min Rain = 0
KNH1 141155Z 26006KT 22/12 A3003 RMK A01 T02150115  RH  053%=      5-min Rain = 0
KNH1 141156Z 26006KT 22/12 A3003 RMK A01 T02150115  RH  053%=      5-min Rain = 0
KNH1 141157Z 25006KT 22/12 A3003 RMK A01 T02150115  RH  053%=      5-min Rain = 0
KNH1 141158Z 25006KT 22/12 A3003 RMK A01 T02160115  RH  053%=      5-min Rain = 0
KNH1 141159Z 25007KT 22/12 A3003 RMK A01 T02170115  RH  052%=      5-min Rain = 0
KNH1 141200Z 24007KT 22/12 A3003 RMK A01 T02170115  RH  052%=      5-min Rain = 0
KNH1 141201Z 24007KT 22/12 A3003 RMK A01 T02180115  RH  052%=      5-min Rain = 0
KNH1 141202Z 24007KT 22/12 A3003 RMK A01 T02190116  RH  052%=      5-min Rain = 0
KNH1 141203Z 25007KT 22/12 A3003 RMK A01 T02190116  RH  052%=      5-min Rain = 0
KNH1 141204Z 25007KT 22/12 A3004 RMK A01 T02190115  RH  052%=      5-min Rain = 0
KNH1 141205Z 25006KT 22/12 A3004 RMK A01 T02190115  RH  052%=      5-min Rain = 0
KNH1 141206Z 25006KT 22/12 A3004 RMK A01 T02190116  RH  052%=      5-min Rain = 0
KNH1 141207Z 26006KT 22/12 A3004 RMK A01 T02190116  RH  052%=      5-min Rain = 0
KNH1 141208Z 26006KT 22/12 A3004 RMK A01 T02180116  RH  052%=      5-min Rain = 0
KNH1 141209Z 26006KT 22/12 A3004 RMK A01 T02180117  RH  052%=      5-min Rain = 0
KNH1 141210Z 26006KT 22/12 A3004 RMK A01 T02170116  RH  052%=      5-min Rain = 0
KNH1 141211Z 25006KT 22/12 A3004 RMK A01 T02170117  RH  053%=      5-min Rain = 0
KNH1 141212Z 25006KT 22/12 A3004 RMK A01 T02170117  RH  053%=      5-min Rain = 0
KNH1 141213Z 25006KT 22/12 A3004 RMK A01 T02170117  RH  053%=      5-min Rain = 0
KNH1 141214Z 25006KT 22/12 A3004 RMK A01 T02170117  RH  053%=      5-min Rain = 0
KNH1 141215Z 25005KT 22/12 A3004 RMK A01 T02160117  RH  053%=      5-min Rain = 0
KNH1 141216Z 25005KT 22/12 A3004 RMK A01 T02160117  RH  053%=      5-min Rain = 0
KNH1 141217Z 25005KT 22/12 A3004 RMK A01 T02150117  RH  054%=      5-min Rain = 0
KNH1 141218Z 26005KT 21/12 A3004 RMK A01 T02140117  RH  054%=      5-min Rain = 0
KNH1 141219Z 26005KT 21/12 A3004 RMK A01 T02140117  RH  054%=      5-min Rain = 0
KNH1 141220Z 26006KT 21/12 A3004 RMK A01 T02130118  RH  054%=      5-min Rain = 0
KNH1 141221Z 25006KT 21/12 A3004 RMK A01 T02130117  RH  055%=      5-min Rain = 0
KNH1 141222Z 25006KT 21/12 A3004 RMK A01 T02130118  RH  055%=      5-min Rain = 0
KNH1 141223Z 25005KT 21/12 A3004 RMK A01 T02120118  RH  055%=      5-min Rain = 0
KNH1 141224Z 25005KT 21/12 A3004 RMK A01 T02120118  RH  055%=      5-min Rain = 0
KNH1 141225Z 25005KT 21/12 A3004 RMK A01 T02120119  RH  055%=      5-min Rain = 0
KNH1 141226Z 24005KT 21/12 A3004 RMK A01 T02120119  RH  055%=      5-min Rain = 0
KNH1 141227Z 24005KT 21/12 A3004 RMK A01 T02120119  RH  055%=      5-min Rain = 0
KNH1 141228Z 24005KT 21/12 A3004 RMK A01 T02120119  RH  055%=      5-min Rain = 0
KNH1 141229Z 24006KT 21/12 A3004 RMK A01 T02120119  RH  055%=      5-min Rain = 0
KNH1 141230Z 24006KT 21/12 A3004 RMK A01 T02120119  RH  056%=      5-min Rain = 0
KNH1 141231Z 24006KT 21/12 A3004 RMK A01 T02120120  RH  056%=      5-min Rain = 0
KNH1 141232Z 24006KT 21/12 A3004 RMK A01 T02120120  RH  056%=      5-min Rain = 0
KNH1 141233Z 24006KT 21/12 A3004 RMK A01 T02110120  RH  056%=      5-min Rain = 0
KNH1 141234Z 24006KT 21/12 A3004 RMK A01 T02120121  RH  056%=      5-min Rain = 0
KNH1 141235Z 24006KT 21/12 A3004 RMK A01 T02120121  RH  056%=      5-min Rain = 0
KNH1 141236Z 23006KT 21/12 A3004 RMK A01 T02130121  RH  056%=      5-min Rain = 0
KNH1 141237Z 23006KT 21/12 A3004 RMK A01 T02140121  RH  055%=      5-min Rain = 0
KNH1 141238Z 23006KT 21/12 A3004 RMK A01 T02140121  RH  055%=      5-min Rain = 0
KNH1 141239Z 23006KT 22/12 A3004 RMK A01 T02150121  RH  055%=      5-min Rain = 0
KNH1 141240Z 23006KT 22/12 A3004 RMK A01 T02160121  RH  055%=      5-min Rain = 0
KNH1 141241Z 23006KT 22/12 A3004 RMK A01 T02170121  RH  054%=      5-min Rain = 0
KNH1 141242Z 23006KT 22/12 A3004 RMK A01 T02190121  RH  054%=      5-min Rain = 0
KNH1 141243Z 23006KT 22/12 A3004 RMK A01 T02200122  RH  053%=      5-min Rain = 0
KNH1 141244Z 24006KT 22/12 A3004 RMK A01 T02220122  RH  053%=      5-min Rain = 0
KNH1 141245Z 23006KT 22/12 A3004 RMK A01 T02230123  RH  053%=      5-min Rain = 0
KNH1 141246Z 23006KT 23/12 A3004 RMK A01 T02250123  RH  053%=      5-min Rain = 0
KNH1 141247Z 23006KT 23/12 A3004 RMK A01 T02260124  RH  052%=      5-min Rain = 0
KNH1 141248Z 23006KT 23/13 A3004 RMK A01 T02280125  RH  052%=      5-min Rain = 0
KNH1 141249Z 23007KT 23/13 A3004 RMK A01 T02300126  RH  052%=      5-min Rain = 0
KNH1 141250Z 23007KT 23/13 A3004 RMK A01 T02320126  RH  051%=      5-min Rain = 0
KNH1 141251Z 23007KT 24/13 A3004 RMK A01 T02350127  RH  051%=      5-min Rain = 0
KNH1 141252Z 23007KT 24/13 A3004 RMK A01 T02360127  RH  050%=      5-min Rain = 0
KNH1 141253Z 23007KT 24/13 A3004 RMK A01 T02380127  RH  050%=      5-min Rain = 0
KNH1 141254Z 23006KT 24/13 A3004 RMK A01 T02390127  RH  050%=      5-min Rain = 0
KNH1 141255Z 23006KT 24/13 A3004 RMK A01 T02400127  RH  049%=      5-min Rain = 0
KNH1 141256Z 23006KT 24/13 A3004 RMK A01 T02400128  RH  049%=      5-min Rain = 0
KNH1 141257Z 23007KT 24/13 A3004 RMK A01 T02400128  RH  050%=      5-min Rain = 0
KNH1 141258Z 23007KT 24/13 A3004 RMK A01 T02390128  RH  050%=      5-min Rain = 0
KNH1 141259Z 23006KT 24/13 A3004 RMK A01 T02400129  RH  050%=      5-min Rain = 0
KNH1 141300Z 23007KT 24/13 A3004 RMK A01 T02390129  RH  050%=      5-min Rain = 0
KNH1 141301Z 23007KT 24/13 A3004 RMK A01 T02390129  RH  050%=      5-min Rain = 0
KNH1 141302Z 22007KT 24/13 A3004 RMK A01 T02380129  RH  050%=      5-min Rain = 0
KNH1 141303Z 22007KT 24/13 A3004 RMK A01 T02380130  RH  051%=      5-min Rain = 0
KNH1 141304Z 22007KT 24/13 A3004 RMK A01 T02380130  RH  051%=      5-min Rain = 0
KNH1 141305Z 22006KT 24/13 A3004 RMK A01 T02380131  RH  051%=      5-min Rain = 0
KNH1 141306Z 22006KT 24/13 A3004 RMK A01 T02380131  RH  051%=      5-min Rain = 0
KNH1 141307Z 22006KT 24/13 A3004 RMK A01 T02380132  RH  051%=      5-min Rain = 0
KNH1 141308Z 22006KT 24/13 A3004 RMK A01 T02380132  RH  051%=      5-min Rain = 0
KNH1 141309Z 22006KT 24/13 A3004 RMK A01 T02380133  RH  052%=      5-min Rain = 0
KNH1 141310Z 22006KT 24/13 A3004 RMK A01 T02380133  RH  052%=      5-min Rain = 0
KNH1 141311Z 22006KT 24/13 A3004 RMK A01 T02380133  RH  052%=      5-min Rain = 0
KNH1 141312Z 22006KT 24/13 A3004 RMK A01 T02390134  RH  052%=      5-min Rain = 0
KNH1 141313Z 22006KT 24/14 A3004 RMK A01 T02390135  RH  052%=      5-min Rain = 0
KNH1 141314Z 22006KT 24/14 A3004 RMK A01 T02390135  RH  052%=      5-min Rain = 0
KNH1 141315Z 22006KT 24/14 A3004 RMK A01 T02400136  RH  052%=      5-min Rain = 0
KNH1 141316Z 23006KT 24/14 A3004 RMK A01 T02400137  RH  052%=      5-min Rain = 0
KNH1 141317Z 23006KT 24/14 A3004 RMK A01 T02410137  RH  052%=      5-min Rain = 0
KNH1 141318Z 23005KT 24/14 A3004 RMK A01 T02420138  RH  052%=      5-min Rain = 0
KNH1 141319Z 23006KT 24/14 A3004 RMK A01 T02420138  RH  052%=      5-min Rain = 0
KNH1 141320Z 23006KT 24/14 A3004 RMK A01 T02430138  RH  052%=      5-min Rain = 0
KNH1 141321Z 23005KT 24/14 A3004 RMK A01 T02440138  RH  052%=      5-min Rain = 0
KNH1 141322Z 23005KT 25/14 A3004 RMK A01 T02450138  RH  051%=      5-min Rain = 0
KNH1 141323Z 24005KT 25/14 A3004 RMK A01 T02460139  RH  051%=      5-min Rain = 0
KNH1 141324Z 23006KT 25/14 A3004 RMK A01 T02460138  RH  051%=      5-min Rain = 0
KNH1 141325Z 23006KT 25/14 A3004 RMK A01 T02470138  RH  051%=      5-min Rain = 0
KNH1 141326Z 24006KT 25/14 A3004 RMK A01 T02480138  RH  050%=      5-min Rain = 0
KNH1 141327Z 24006KT 25/14 A3004 RMK A01 T02490139  RH  051%=      5-min Rain = 0
KNH1 141328Z 24005KT 25/14 A3004 RMK A01 T02490140  RH  051%=      5-min Rain = 0
KNH1 141329Z 24006KT 25/14 A3004 RMK A01 T02500140  RH  051%=      5-min Rain = 0
KNH1 141330Z 24005KT 25/14 A3004 RMK A01 T02500140  RH  050%=      5-min Rain = 0
KNH1 141331Z 24004KT 25/14 A3004 RMK A01 T02510141  RH  051%=      5-min Rain = 0
KNH1 141332Z 23005KT 25/14 A3004 RMK A01 T02510142  RH  051%=      5-min Rain = 0
KNH1 141333Z 23006KT 25/14 A3004 RMK A01 T02510141  RH  050%=      5-min Rain = 0
KNH1 141334Z 24006KT 25/14 A3004 RMK A01 T02520141  RH  050%=      5-min Rain = 0
KNH1 141335Z 24006KT 25/14 A3004 RMK A01 T02530141  RH  050%=      5-min Rain = 0
KNH1 141336Z 24006KT 25/14 A3004 RMK A01 T02540141  RH  050%=      5-min Rain = 0
KNH1 141337Z 24006KT 25/14 A3004 RMK A01 T02540142  RH  050%=      5-min Rain = 0
KNH1 141338Z 24006KT 26/14 A3004 RMK A01 T02550142  RH  049%=      5-min Rain = 0
KNH1 141339Z 24006KT 26/14 A3004 RMK A01 T02560143  RH  049%=      5-min Rain = 0
KNH1 141340Z 24006KT 26/14 A3004 RMK A01 T02570143  RH  049%=      5-min Rain = 0
KNH1 141341Z 24007KT 26/14 A3004 RMK A01 T02580143  RH  049%=      5-min Rain = 0
KNH1 141342Z 25007KT 26/14 A3004 RMK A01 T02590143  RH  049%=      5-min Rain = 0
KNH1 141343Z 26007KT 26/14 A3005 RMK A01 T02600144  RH  049%=      5-min Rain = 0
KNH1 141344Z 25007KT 26/14 A3005 RMK A01 T02600144  RH  049%=      5-min Rain = 0
KNH1 141345Z 25007KT 26/14 A3005 RMK A01 T02610144  RH  048%=      5-min Rain = 0
KNH1 141346Z 25007KT 26/14 A3005 RMK A01 T02620144  RH  048%=      5-min Rain = 0
KNH1 141347Z 25008KT 26/14 A3005 RMK A01 T02630144  RH  048%=      5-min Rain = 0
KNH1 141348Z 25008KT 26/14 A3005 RMK A01 T02640144  RH  047%=      5-min Rain = 0
KNH1 141349Z 24008KT 27/14 A3005 RMK A01 T02660144  RH  047%=      5-min Rain = 0
KNH1 141350Z 24010KT 27/14 A3005 RMK A01 T02680144  RH  046%=      5-min Rain = 0
KNH1 141351Z 24009KT 27/14 A3005 RMK A01 T02700144  RH  046%=      5-min Rain = 0
KNH1 141352Z 24008KT 27/14 A3005 RMK A01 T02710144  RH  046%=      5-min Rain = 0
KNH1 141353Z 24010KT 27/14 A3005 RMK A01 T02710144  RH  046%=      5-min Rain = 0
KNH1 141354Z 24010KT 27/14 A3005 RMK A01 T02710143  RH  045%=      5-min Rain = 0
KNH1 141355Z 23009KT 27/14 A3005 RMK A01 T02700143  RH  046%=      5-min Rain = 0
KNH1 141356Z 23010KT 27/14 A3004 RMK A01 T02700144  RH  046%=      5-min Rain = 0
KNH1 141357Z 23010KT 27/14 A3004 RMK A01 T02700144  RH  046%=      5-min Rain = 0
KNH1 141358Z 23009KT 27/14 A3005 RMK A01 T02700144  RH  046%=      5-min Rain = 0
KNH1 141359Z 23010KT 27/14 A3004 RMK A01 T02700143  RH  046%=      5-min Rain = 0
KNH1 141400Z 22010KT 27/14 A3004 RMK A01 T02700143  RH  045%=      5-min Rain = 0
KNH1 141401Z 22010KT 27/14 A3004 RMK A01 T02710144  RH  046%=      5-min Rain = 0
KNH1 141402Z 22010KT 27/15 A3005 RMK A01 T02710145  RH  046%=      5-min Rain = 0
KNH1 141403Z 22010KT 27/15 A3005 RMK A01 T02710146  RH  046%=      5-min Rain = 0
KNH1 141404Z 23010KT 27/15 A3005 RMK A01 T02710147  RH  047%=      5-min Rain = 0
KNH1 141405Z 22010KT 27/15 A3005 RMK A01 T02710146  RH  046%=      5-min Rain = 0
KNH1 141406Z 22010KT 27/15 A3005 RMK A01 T02720146  RH  046%=      5-min Rain = 0
KNH1 141407Z 22010KT 27/15 A3004 RMK A01 T02720146  RH  046%=      5-min Rain = 0
KNH1 141408Z 22012KT 27/15 A3004 RMK A01 T02730145  RH  046%=      5-min Rain = 0
KNH1 141409Z 22012KT 27/14 A3004 RMK A01 T02730144  RH  045%=      5-min Rain = 0
KNH1 141410Z 22011KT 27/15 A3004 RMK A01 T02740145  RH  045%=      5-min Rain = 0
KNH1 141411Z 22011KT 28/15 A3004 RMK A01 T02760146  RH  045%=      5-min Rain = 0
KNH1 141412Z 22011KT 28/15 A3004 RMK A01 T02780148  RH  045%=      5-min Rain = 0
KNH1 141413Z 22012G17KT 28/15 A3004 RMK A01 T02790147  RH  044%=      5-min Rain = 0
KNH1 141414Z 22010KT 28/15 A3004 RMK A01 T02810148  RH  044%=      5-min Rain = 0
KNH1 141415Z 22012KT 28/15 A3004 RMK A01 T02830146  RH  043%=      5-min Rain = 0
KNH1 141416Z 22011KT 29/15 A3004 RMK A01 T02850146  RH  043%=      5-min Rain = 0
KNH1 141417Z 22014KT 29/15 A3004 RMK A01 T02850145  RH  042%=      5-min Rain = 0
KNH1 141418Z 22012KT 29/15 A3004 RMK A01 T02860146  RH  042%=      5-min Rain = 0
KNH1 141419Z 21013KT 29/15 A3004 RMK A01 T02880145  RH  042%=      5-min Rain = 0
KNH1 141420Z 22013KT 29/15 A3004 RMK A01 T02880145  RH  042%=      5-min Rain = 0
KNH1 141421Z 22011KT 29/15 A3004 RMK A01 T02870146  RH  042%=      5-min Rain = 0
KNH1 141422Z 22015KT 29/15 A3004 RMK A01 T02870146  RH  042%=      5-min Rain = 0
KNH1 141423Z 23013KT 29/14 A3004 RMK A01 T02870144  RH  042%=      5-min Rain = 0
KNH1 141424Z 22011KT 29/15 A3004 RMK A01 T02860145  RH  042%=      5-min Rain = 0
KNH1 141425Z 22011KT 29/15 A3004 RMK A01 T02850146  RH  043%=      5-min Rain = 0
KNH1 141426Z 23011KT 29/15 A3004 RMK A01 T02850146  RH  043%=      5-min Rain = 0
KNH1 141427Z 23010KT 29/15 A3004 RMK A01 T02850146  RH  043%=      5-min Rain = 0
KNH1 141428Z 22010KT 28/15 A3004 RMK A01 T02840147  RH  043%=      5-min Rain = 0
KNH1 141429Z 23011KT 29/15 A3004 RMK A01 T02850146  RH  043%=      5-min Rain = 0
KNH1 141430Z 23009KT 29/15 A3004 RMK A01 T02850146  RH  043%=      5-min Rain = 0
KNH1 141431Z 24012KT 29/15 A3005 RMK A01 T02850145  RH  043%=      5-min Rain = 0
KNH1 141432Z 24013KT 29/15 A3005 RMK A01 T02850145  RH  042%=      5-min Rain = 0
KNH1 141433Z 23011KT 29/15 A3005 RMK A01 T02850145  RH  042%=      5-min Rain = 0
KNH1 141434Z 23011KT 29/15 A3005 RMK A01 T02850146  RH  043%=      5-min Rain = 0
KNH1 141435Z 24011KT 29/15 A3005 RMK A01 T02850146  RH  043%=      5-min Rain = 0
KNH1 141436Z 23011KT 28/15 A3005 RMK A01 T02840145  RH  043%=      5-min Rain = 0
KNH1 141437Z 24009KT 28/15 A3005 RMK A01 T02840146  RH  043%=      5-min Rain = 0
KNH1 141438Z 23008KT 29/15 A3005 RMK A01 T02850147  RH  043%=      5-min Rain = 0
KNH1 141439Z 23009KT 29/15 A3005 RMK A01 T02860148  RH  043%=      5-min Rain = 0
KNH1 141440Z 23008KT 29/15 A3005 RMK A01 T02860149  RH  043%=      5-min Rain = 0
KNH1 141441Z 23009KT 29/15 A3005 RMK A01 T02860149  RH  043%=      5-min Rain = 0
KNH1 141442Z 23008KT 29/15 A3005 RMK A01 T02860150  RH  043%=      5-min Rain = 0
KNH1 141443Z 23008KT 29/15 A3005 RMK A01 T02870151  RH  044%=      5-min Rain = 0
KNH1 141444Z 23010KT 29/15 A3004 RMK A01 T02870149  RH  043%=      5-min Rain = 0
KNH1 141445Z 23009KT 29/15 A3004 RMK A01 T02880149  RH  043%=      5-min Rain = 0
KNH1 141446Z 22011KT 29/15 A3004 RMK A01 T02880148  RH  042%=      5-min Rain = 0
KNH1 141447Z 22011KT 29/15 A3004 RMK A01 T02890147  RH  042%=      5-min Rain = 0
KNH1 141448Z 22010KT 29/15 A3004 RMK A01 T02890149  RH  043%=      5-min Rain = 0
KNH1 141449Z 22012KT 29/15 A3004 RMK A01 T02890148  RH  042%=      5-min Rain = 0
KNH1 141450Z 22010KT 29/15 A3004 RMK A01 T02890148  RH  042%=      5-min Rain = 0
KNH1 141451Z 23013KT 29/15 A3004 RMK A01 T02890147  RH  042%=      5-min Rain = 0
KNH1 141452Z 22011KT 29/15 A3004 RMK A01 T02900147  RH  042%=      5-min Rain = 0
KNH1 141453Z 22011KT 29/15 A3004 RMK A01 T02900148  RH  042%=      5-min Rain = 0
KNH1 141454Z 22011KT 29/15 A3004 RMK A01 T02900148  RH  042%=      5-min Rain = 0
KNH1 141455Z 22012KT 29/15 A3004 RMK A01 T02900148  RH  042%=      5-min Rain = 0
KNH1 141456Z 22010KT 29/15 A3004 RMK A01 T02910148  RH  042%=      5-min Rain = 0
KNH1 141457Z 23010KT 29/15 A3004 RMK A01 T02910150  RH  042%=      5-min Rain = 0
KNH1 141458Z 22013KT 29/15 A3005 RMK A01 T02920150  RH  042%=      5-min Rain = 0
KNH1 141459Z 23011KT 29/15 A3005 RMK A01 T02930148  RH  041%=      5-min Rain = 0
KNH1 141500Z 23013KT 29/15 A3005 RMK A01 T02930148  RH  041%=      5-min Rain = 0
KNH1 141501Z 23011KT 29/15 A3005 RMK A01 T02940147  RH  041%=      5-min Rain = 0
KNH1 141502Z 23010KT 30/15 A3005 RMK A01 T02950149  RH  041%=      5-min Rain = 0
KNH1 141503Z 22010KT 30/15 A3005 RMK A01 T02950148  RH  041%=      5-min Rain = 0
KNH1 141504Z 22012KT 30/15 A3005 RMK A01 T02960146  RH  040%=      5-min Rain = 0
KNH1 141505Z 22010KT 30/15 A3005 RMK A01 T02960147  RH  040%=      5-min Rain = 0
KNH1 141506Z 22009KT 30/15 A3004 RMK A01 T02950150  RH  041%=      5-min Rain = 0
KNH1 141507Z 23010KT 30/15 A3004 RMK A01 T02960149  RH  041%=      5-min Rain = 0
KNH1 141508Z 23009KT 30/15 A3005 RMK A01 T02970149  RH  041%=      5-min Rain = 0
KNH1 141509Z 23008KT 30/15 A3005 RMK A01 T02970148  RH  040%=      5-min Rain = 0
KNH1 141510Z 22008KT 30/15 A3005 RMK A01 T02980150  RH  040%=      5-min Rain = 0
KNH1 141511Z 22008KT 30/15 A3005 RMK A01 T02990150  RH  040%=      5-min Rain = 0
KNH1 141512Z 23009G14KT 30/15 A3005 RMK A01 T02990151  RH  041%=      5-min Rain = 0
KNH1 141513Z 23011KT 30/15 A3005 RMK A01 T03000148  RH  039%=      5-min Rain = 0
KNH1 141514Z 23009KT 30/15 A3005 RMK A01 T03000147  RH  039%=      5-min Rain = 0
KNH1 141515Z 22008KT 30/15 A3005 RMK A01 T03010149  RH  040%=      5-min Rain = 0
KNH1 141516Z 23010KT 30/15 A3004 RMK A01 T03010151  RH  040%=      5-min Rain = 0
KNH1 141517Z 22009KT 30/15 A3004 RMK A01 T03020150  RH  040%=      5-min Rain = 0
KNH1 141518Z 22012KT 30/15 A3004 RMK A01 T03020151  RH  040%=      5-min Rain = 0
KNH1 141519Z 22012KT 30/15 A3004 RMK A01 T03020149  RH  039%=      5-min Rain = 0
KNH1 141520Z 22013KT 30/15 A3004 RMK A01 T03010145  RH  039%=      5-min Rain = 0
KNH1 141521Z 21011KT 30/15 A3004 RMK A01 T03010148  RH  039%=      5-min Rain = 0
KNH1 141522Z 22010KT 30/15 A3004 RMK A01 T03010149  RH  040%=      5-min Rain = 0
KNH1 141523Z 21009KT 30/15 A3004 RMK A01 T03010150  RH  040%=      5-min Rain = 0
KNH1 141524Z 22012KT 30/15 A3004 RMK A01 T03020148  RH  039%=      5-min Rain = 0
KNH1 141525Z 21013KT 30/15 A3004 RMK A01 T03020147  RH  039%=      5-min Rain = 0
KNH1 141526Z 21014KT 30/15 A3004 RMK A01 T03020145  RH  038%=      5-min Rain = 0
KNH1 141527Z 21013KT 30/15 A3004 RMK A01 T03020145  RH  038%=      5-min Rain = 0
KNH1 141528Z 22013KT 30/15 A3004 RMK A01 T03020146  RH  039%=      5-min Rain = 0
KNH1 141529Z 22012KT 30/15 A3004 RMK A01 T03030146  RH  039%=      5-min Rain = 0
KNH1 141530Z 22013KT 30/15 A3004 RMK A01 T03030145  RH  038%=      5-min Rain = 0
KNH1 141531Z 21012KT 30/15 A3004 RMK A01 T03040146  RH  038%=      5-min Rain = 0
KNH1 141532Z 21012KT 31/15 A3003 RMK A01 T03050149  RH  039%=      5-min Rain = 0
KNH1 141533Z 22013KT 31/15 A3003 RMK A01 T03050148  RH  038%=      5-min Rain = 0
KNH1 141534Z 22015KT 31/15 A3003 RMK A01 T03070145  RH  037%=      5-min Rain = 0
KNH1 141535Z 22014KT 31/14 A3003 RMK A01 T03080144  RH  037%=      5-min Rain = 0
KNH1 141536Z 22012KT 31/15 A3004 RMK A01 T03090146  RH  037%=      5-min Rain = 0
KNH1 141537Z 22013KT 31/15 A3004 RMK A01 T03100147  RH  037%=      5-min Rain = 0
KNH1 141538Z 22012KT 31/15 A3004 RMK A01 T03100148  RH  037%=      5-min Rain = 0
KNH1 141539Z 21012KT 31/15 A3004 RMK A01 T03100147  RH  037%=      5-min Rain = 0
KNH1 141540Z 21010KT 31/15 A3004 RMK A01 T03100148  RH  037%=      5-min Rain = 0
KNH1 141541Z 22011KT 31/15 A3004 RMK A01 T03100151  RH  038%=      5-min Rain = 0
KNH1 141542Z 22012KT 31/15 A3004 RMK A01 T03110148  RH  037%=      5-min Rain = 0
KNH1 141543Z 22012KT 31/15 A3004 RMK A01 T03120146  RH  037%=      5-min Rain = 0
KNH1 141544Z 22012KT 31/15 A3004 RMK A01 T03110146  RH  037%=      5-min Rain = 0
KNH1 141545Z 22012KT 31/15 A3004 RMK A01 T03110145  RH  036%=      5-min Rain = 0
KNH1 141546Z 22010KT 31/15 A3004 RMK A01 T03120146  RH  037%=      5-min Rain = 0
KNH1 141547Z 23011KT 31/15 A3004 RMK A01 T03120147  RH  037%=      5-min Rain = 0
KNH1 141548Z 22012KT 31/15 A3004 RMK A01 T03130146  RH  036%=      5-min Rain = 0
KNH1 141549Z 22013KT 31/14 A3004 RMK A01 T03130144  RH  036%=      5-min Rain = 0
KNH1 141550Z 22013KT 31/14 A3004 RMK A01 T03130142  RH  035%=      5-min Rain = 0
KNH1 141551Z 23011KT 31/14 A3004 RMK A01 T03130143  RH  036%=      5-min Rain = 0
KNH1 141552Z 22012KT 31/15 A3004 RMK A01 T03140145  RH  036%=      5-min Rain = 0
KNH1 141553Z 22012KT 31/15 A3004 RMK A01 T03140145  RH  036%=      5-min Rain = 0
KNH1 141554Z 22012KT 31/14 A3004 RMK A01 T03140144  RH  036%=      5-min Rain = 0
KNH1 141555Z 22011KT 31/15 A3004 RMK A01 T03140145  RH  036%=      5-min Rain = 0
KNH1 141556Z 22011KT 31/14 A3004 RMK A01 T03140144  RH  036%=      5-min Rain = 0
KNH1 141557Z 22010KT 32/15 A3004 RMK A01 T03150145  RH  036%=      5-min Rain = 0
KNH1 141558Z 23009KT 32/14 A3004 RMK A01 T03150144  RH  035%=      5-min Rain = 0
KNH1 141559Z 23008KT 32/15 A3004 RMK A01 T03150145  RH  036%=      5-min Rain = 0
KNH1 141600Z 24009KT 32/15 A3005 RMK A01 T03160145  RH  036%=      5-min Rain = 0
KNH1 141601Z 24009KT 32/14 A3005 RMK A01 T03170143  RH  035%=      5-min Rain = 0
KNH1 141602Z 26006KT 32/15 A3005 RMK A01 T03170146  RH  036%=      5-min Rain = 0
KNH1 141603Z 26006KT 32/15 A3005 RMK A01 T03180147  RH  036%=      5-min Rain = 0
KNH1 141604Z 25008KT 32/14 A3005 RMK A01 T03190144  RH  035%=      5-min Rain = 0
KNH1 141605Z 24008KT 32/14 A3005 RMK A01 T03190143  RH  034%=      5-min Rain = 0
KNH1 141606Z 24008KT 32/14 A3004 RMK A01 T03180142  RH  034%=      5-min Rain = 0
KNH1 141607Z 24007KT 32/14 A3004 RMK A01 T03180143  RH  035%=      5-min Rain = 0
KNH1 141608Z 25007KT 32/14 A3004 RMK A01 T03180143  RH  035%=      5-min Rain = 0
KNH1 141609Z 26006KT 32/14 A3005 RMK A01 T03180141  RH  034%=      5-min Rain = 0
KNH1 141610Z 28006KT 32/14 A3005 RMK A01 T03180139  RH  034%=      5-min Rain = 0
KNH1 141611Z 28005KT 32/14 A3005 RMK A01 T03190140  RH  034%=      5-min Rain = 0
KNH1 141612Z 27005KT 32/15 A3005 RMK A01 T03190145  RH  035%=      5-min Rain = 0
KNH1 141613Z 25006KT 32/15 A3005 RMK A01 T03200145  RH  035%=      5-min Rain = 0
KNH1 141614Z 25005KT 32/15 A3004 RMK A01 T03200147  RH  035%=      5-min Rain = 0
KNH1 141615Z 25006KT 32/15 A3004 RMK A01 T03190146  RH  035%=      5-min Rain = 0
KNH1 141616Z 23006KT 32/15 A3004 RMK A01 T03180145  RH  035%=      5-min Rain = 0
KNH1 141617Z 22008KT 32/15 A3004 RMK A01 T03190146  RH  035%=      5-min Rain = 0
KNH1 141618Z 21009KT 32/15 A3004 RMK A01 T03190145  RH  035%=      5-min Rain = 0
KNH1 141619Z 22009KT 32/15 A3004 RMK A01 T03190146  RH  035%=      5-min Rain = 0
KNH1 141620Z 22009KT 32/15 A3004 RMK A01 T03190145  RH  035%=      5-min Rain = 0
KNH1 141621Z 22008KT 32/15 A3004 RMK A01 T03190146  RH  035%=      5-min Rain = 0
KNH1 141622Z 21007KT 32/15 A3004 RMK A01 T03190148  RH  036%=      5-min Rain = 0
KNH1 141623Z 22008KT 32/14 A3004 RMK A01 T03200144  RH  034%=      5-min Rain = 0
KNH1 141624Z 22006KT 32/14 A3004 RMK A01 T03200142  RH  034%=      5-min Rain = 0
KNH1 141625Z 22008KT 32/15 A3005 RMK A01 T03210145  RH  034%=      5-min Rain = 0
KNH1 141626Z 23008KT 32/14 A3005 RMK A01 T03210142  RH  034%=      5-min Rain = 0
KNH1 141627Z 23006KT 32/14 A3005 RMK A01 T03210143  RH  034%=      5-min Rain = 0
KNH1 141628Z 24008KT 32/14 A3005 RMK A01 T03220142  RH  034%=      5-min Rain = 0
KNH1 141629Z 24006KT 32/14 A3005 RMK A01 T03220143  RH  034%=      5-min Rain = 0
KNH1 141630Z 25007KT 32/14 A3005 RMK A01 T03230143  RH  034%=      5-min Rain = 0
KNH1 141631Z 23008KT 32/14 A3005 RMK A01 T03240139  RH  033%=      5-min Rain = 0
KNH1 141632Z 24008KT 32/14 A3005 RMK A01 T03240141  RH  033%=      5-min Rain = 0
KNH1 141633Z 24007KT 32/14 A3005 RMK A01 T03240140  RH  033%=      5-min Rain = 0
KNH1 141634Z 25007KT 32/14 A3005 RMK A01 T03240139  RH  032%=      5-min Rain = 0
KNH1 141635Z 25008KT 32/14 A3005 RMK A01 T03240137  RH  032%=      5-min Rain = 0
KNH1 141636Z 25007KT 32/14 A3005 RMK A01 T03240137  RH  032%=      5-min Rain = 0
KNH1 141637Z 25006KT 33/14 A3005 RMK A01 T03250137  RH  032%=      5-min Rain = 0
KNH1 141638Z 25006KT 33/14 A3005 RMK A01 T03260138  RH  032%=      5-min Rain = 0
KNH1 141639Z 23005KT 33/14 A3005 RMK A01 T03260139  RH  032%=      5-min Rain = 0
KNH1 141640Z 24005KT 33/14 A3005 RMK A01 T03250139  RH  032%=      5-min Rain = 0
KNH1 141641Z 26005KT 33/14 A3005 RMK A01 T03260139  RH  032%=      5-min Rain = 0
KNH1 141642Z 27007KT 33/14 A3005 RMK A01 T03260135  RH  031%=      5-min Rain = 0
KNH1 141643Z 25007KT 33/14 A3005 RMK A01 T03270137  RH  032%=      5-min Rain = 0
KNH1 141644Z 26009KT 33/14 A3005 RMK A01 T03270137  RH  032%=      5-min Rain = 0
KNH1 141645Z 24007KT 33/13 A3005 RMK A01 T03260134  RH  031%=      5-min Rain = 0
KNH1 141646Z 23006KT 33/14 A3005 RMK A01 T03250138  RH  032%=      5-min Rain = 0
KNH1 141647Z 24005KT 33/14 A3005 RMK A01 T03260141  RH  033%=      5-min Rain = 0
KNH1 141648Z 25007KT 33/14 A3005 RMK A01 T03280139  RH  032%=      5-min Rain = 0
KNH1 141649Z 25008KT 33/14 A3005 RMK A01 T03290139  RH  032%=      5-min Rain = 0
KNH1 141650Z 24008KT 33/14 A3005 RMK A01 T03300141  RH  032%=      5-min Rain = 0
KNH1 141651Z 25009KT 33/14 A3005 RMK A01 T03320139  RH  031%=      5-min Rain = 0
KNH1 141652Z 25009KT 33/14 A3005 RMK A01 T03320136  RH  031%=      5-min Rain = 0
KNH1 141653Z 25009KT 33/14 A3005 RMK A01 T03320138  RH  031%=      5-min Rain = 0
KNH1 141654Z 25009KT 33/14 A3005 RMK A01 T03320141  RH  032%=      5-min Rain = 0
KNH1 141655Z 25009KT 33/14 A3005 RMK A01 T03340142  RH  031%=      5-min Rain = 0
KNH1 141656Z 23009KT 33/14 A3005 RMK A01 T03340140  RH  031%=      5-min Rain = 0
KNH1 141657Z 25007KT 34/14 A3005 RMK A01 T03350141  RH  031%=      5-min Rain = 0
KNH1 141658Z 26009KT 34/14 A3005 RMK A01 T03370138  RH  030%=      5-min Rain = 0
KNH1 141659Z 25010KT 34/14 A3005 RMK A01 T03370138  RH  030%=      5-min Rain = 0
KNH1 141700Z 24009KT 34/14 A3005 RMK A01 T03370138  RH  030%=      5-min Rain = 0
KNH1 141701Z 24009KT 34/14 A3005 RMK A01 T03380138  RH  030%=      5-min Rain = 0
KNH1 141702Z 23010KT 34/14 A3005 RMK A01 T03370141  RH  031%=      5-min Rain = 0
KNH1 141703Z 24010KT 34/14 A3005 RMK A01 T03370141  RH  031%=      5-min Rain = 0
KNH1 141704Z 24010KT 34/14 A3005 RMK A01 T03370139  RH  030%=      5-min Rain = 0
KNH1 141705Z 23010KT 34/14 A3005 RMK A01 T03360139  RH  031%=      5-min Rain = 0
KNH1 141706Z 23008KT 33/14 A3005 RMK A01 T03340140  RH  031%=      5-min Rain = 0
KNH1 141707Z 23010KT 33/14 A3004 RMK A01 T03330141  RH  031%=      5-min Rain = 0
KNH1 141708Z 23011KT 34/14 A3004 RMK A01 T03350141  RH  031%=      5-min Rain = 0
KNH1 141709Z 22011KT 34/14 A3004 RMK A01 T03360141  RH  031%=      5-min Rain = 0
KNH1 141710Z 23010KT 34/14 A3004 RMK A01 T03360142  RH  031%=      5-min Rain = 0
KNH1 141711Z 24009KT 34/14 A3004 RMK A01 T03350142  RH  031%=      5-min Rain = 0
KNH1 141712Z 23010KT 34/14 A3004 RMK A01 T03360144  RH  031%=      5-min Rain = 0
KNH1 141713Z 23011KT 34/14 A3004 RMK A01 T03350141  RH  031%=      5-min Rain = 0
KNH1 141714Z 22010KT 33/14 A3004 RMK A01 T03340141  RH  031%=      5-min Rain = 0
KNH1 141715Z 24009KT 33/14 A3004 RMK A01 T03340141  RH  031%=      5-min Rain = 0
KNH1 141716Z 25007KT 33/14 A3004 RMK A01 T03340142  RH  031%=      5-min Rain = 0
KNH1 141717Z 24008KT 34/14 A3004 RMK A01 T03350140  RH  031%=      5-min Rain = 0
KNH1 141718Z 22006KT 33/14 A3004 RMK A01 T03340142  RH  031%=      5-min Rain = 0
KNH1 141719Z 24008KT 34/14 A3004 RMK A01 T03350144  RH  032%=      5-min Rain = 0
KNH1 141720Z 23008KT 34/14 A3004 RMK A01 T03350141  RH  031%=      5-min Rain = 0
KNH1 141721Z 24007KT 34/14 A3004 RMK A01 T03360144  RH  031%=      5-min Rain = 0
KNH1 141722Z 25007KT 34/14 A3004 RMK A01 T03370141  RH  031%=      5-min Rain = 0
KNH1 141723Z 25008KT 34/14 A3004 RMK A01 T03380144  RH  031%=      5-min Rain = 0
KNH1 141724Z 23008KT 34/14 A3004 RMK A01 T03400143  RH  031%=      5-min Rain = 0
KNH1 141725Z 24008KT 34/14 A3004 RMK A01 T03390144  RH  031%=      5-min Rain = 0
KNH1 141726Z 24008KT 34/14 A3004 RMK A01 T03390143  RH  031%=      5-min Rain = 0
KNH1 141727Z 24006KT 34/14 A3004 RMK A01 T03400144  RH  031%=      5-min Rain = 0
KNH1 141728Z 23008KT 34/15 A3004 RMK A01 T03430146  RH  031%=      5-min Rain = 0
KNH1 141729Z 24010KT 34/15 A3004 RMK A01 T03440145  RH  030%=      5-min Rain = 0
KNH1 141730Z 24009KT 35/15 A3004 RMK A01 T03460145  RH  030%=      5-min Rain = 0
KNH1 141731Z 25006KT 35/14 A3004 RMK A01 T03450142  RH  030%=      5-min Rain = 0
KNH1 141732Z 23006KT 35/14 A3004 RMK A01 T03470144  RH  030%=      5-min Rain = 0
KNH1 141733Z 25006KT 35/14 A3004 RMK A01 T03470144  RH  030%=      5-min Rain = 0
KNH1 141734Z 29007KT 35/14 A3004 RMK A01 T03470141  RH  029%=      5-min Rain = 0
KNH1 141735Z 28008KT 35/14 A3004 RMK A01 T03500141  RH  029%=      5-min Rain = 0
KNH1 141736Z 28007KT 35/14 A3004 RMK A01 T03520140  RH  028%=      5-min Rain = 0
KNH1 141737Z 28007KT 35/14 A3004 RMK A01 T03500142  RH  029%=      5-min Rain = 0
KNH1 141738Z 27005KT 35/14 A3004 RMK A01 T03490142  RH  029%=      5-min Rain = 0
KNH1 141739Z 25006KT 35/14 A3004 RMK A01 T03500143  RH  029%=      5-min Rain = 0
KNH1 141740Z 22008KT 35/15 A3004 RMK A01 T03510146  RH  029%=      5-min Rain = 0
KNH1 141741Z 22008KT 35/15 A3004 RMK A01 T03500147  RH  030%=      5-min Rain = 0
KNH1 141742Z 21007KT 35/15 A3004 RMK A01 T03480145  RH  030%=      5-min Rain = 0
KNH1 141743Z 21008KT 35/14 A3004 RMK A01 T03490143  RH  029%=      5-min Rain = 0
KNH1 141744Z 21009KT 35/14 A3004 RMK A01 T03510135  RH  027%=      5-min Rain = 0
KNH1 141745Z 21008KT 35/14 A3004 RMK A01 T03510138  RH  028%=      5-min Rain = 0
KNH1 141746Z 21008KT 35/14 A3004 RMK A01 T03530143  RH  029%=      5-min Rain = 0
KNH1 141747Z 21007KT 36/14 A3003 RMK A01 T03550141  RH  028%=      5-min Rain = 0
KNH1 141748Z 25007KT 36/14 A3003 RMK A01 T03560136  RH  027%=      5-min Rain = 0
KNH1 141749Z 24005KT 36/13 A3003 RMK A01 T03570125  RH  025%=      5-min Rain = 0
KNH1 141750Z 22006KT 36/13 A3003 RMK A01 T03590129  RH  025%=      5-min Rain = 0
KNH1 141751Z 22005KT 36/13 A3003 RMK A01 T03580125  RH  025%=      5-min Rain = 0
KNH1 141752Z 23005KT 36/14 A3003 RMK A01 T03570136  RH  027%=      5-min Rain = 0
KNH1 141753Z 24007KT 36/13 A3003 RMK A01 T03620129  RH  025%=      5-min Rain = 0
KNH1 141754Z 24008KT 36/13 A3003 RMK A01 T03630125  RH  024%=      5-min Rain = 0
KNH1 141755Z 24006KT 37/13 A3003 RMK A01 T03660127  RH  024%=      5-min Rain = 0
KNH1 141756Z 23008KT 37/13 A3003 RMK A01 T03650129  RH  024%=      5-min Rain = 0
KNH1 141757Z 24006KT 37/13 A3003 RMK A01 T03650127  RH  024%=      5-min Rain = 0
KNH1 141758Z 23004KT 37/13 A3003 RMK A01 T03670127  RH  024%=      5-min Rain = 0
KNH1 141759Z 23008KT 37/13 A3003 RMK A01 T03690127  RH  023%=      5-min Rain = 0
KNH1 141800Z 25008KT 37/12 A3003 RMK A01 T03700123  RH  023%=      5-min Rain = 0
KNH1 141801Z 26008KT 37/12 A3003 RMK A01 T03690123  RH  023%=      5-min Rain = 0
KNH1 141802Z 27006KT 37/12 A3003 RMK A01 T03660117  RH  022%=      5-min Rain = 0
KNH1 141803Z 26005KT 36/12 A3003 RMK A01 T03630119  RH  023%=      5-min Rain = 0
KNH1 141804Z 28005KT 36/12 A3003 RMK A01 T03640119  RH  023%=      5-min Rain = 0
KNH1 141805Z 29004KT 37/12 A3003 RMK A01 T03660118  RH  023%=      5-min Rain = 0
KNH1 141806Z 30004KT 37/12 A3003 RMK A01 T03660121  RH  023%=      5-min Rain = 0
KNH1 141807Z 31003KT 37/12 A3003 RMK A01 T03650119  RH  023%=      5-min Rain = 0
KNH1 141808Z 27005KT 37/12 A3003 RMK A01 T03650122  RH  023%=      5-min Rain = 0
KNH1 141809Z 26005KT 37/12 A3003 RMK A01 T03660122  RH  023%=      5-min Rain = 0
KNH1 141810Z 25004KT 37/12 A3003 RMK A01 T03660115  RH  022%=      5-min Rain = 0
KNH1 141811Z 28004KT 37/12 A3003 RMK A01 T03660120  RH  023%=      5-min Rain = 0
KNH1 141812Z 28005KT 37/12 A3003 RMK A01 T03650122  RH  023%=      5-min Rain = 0
KNH1 141813Z 26008KT 37/13 A3003 RMK A01 T03670128  RH  024%=      5-min Rain = 0
KNH1 141814Z 25009KT 37/13 A3003 RMK A01 T03700129  RH  024%=      5-min Rain = 0
KNH1 141815Z 26007KT 37/13 A3003 RMK A01 T03700125  RH  023%=      5-min Rain = 0
KNH1 141816Z 25007KT 37/13 A3003 RMK A01 T03690125  RH  023%=      5-min Rain = 0
KNH1 141817Z 25008KT 37/12 A3003 RMK A01 T03680123  RH  023%=      5-min Rain = 0
KNH1 141818Z 24006KT 37/12 A3003 RMK A01 T03690122  RH  023%=      5-min Rain = 0
KNH1 141819Z 24004KT 37/12 A3003 RMK A01 T03680124  RH  023%=      5-min Rain = 0
KNH1 141820Z 25003KT 37/13 A3003 RMK A01 T03670126  RH  024%=      5-min Rain = 0
KNH1 141821Z 24003KT 37/13 A3003 RMK A01 T03670130  RH  024%=      5-min Rain = 0
KNH1 141822Z 27005KT 37/12 A3003 RMK A01 T03690124  RH  023%=      5-min Rain = 0
KNH1 141823Z 26003KT 37/12 A3003 RMK A01 T03700121  RH  022%=      5-min Rain = 0
KNH1 141824Z 26002KT 37/12 A3003 RMK A01 T03690120  RH  023%=      5-min Rain = 0
KNH1 141825Z 23004KT 37/12 A3003 RMK A01 T03680124  RH  023%=      5-min Rain = 0
KNH1 141826Z 24005KT 37/12 A3003 RMK A01 T03700124  RH  023%=      5-min Rain = 0
KNH1 141827Z 23005KT 37/12 A3003 RMK A01 T03700118  RH  022%=      5-min Rain = 0
KNH1 141828Z 24004KT 37/12 A3003 RMK A01 T03680118  RH  022%=      5-min Rain = 0
KNH1 141829Z 29003KT 37/12 A3003 RMK A01 T03670118  RH  022%=      5-min Rain = 0
KNH1 141830Z 29005KT 37/12 A3002 RMK A01 T03680115  RH  022%=      5-min Rain = 0
KNH1 141831Z 28004KT 37/11 A3002 RMK A01 T03680114  RH  022%=      5-min Rain = 0
KNH1 141832Z 29005KT 37/11 A3002 RMK A01 T03670113  RH  022%=      5-min Rain = 0
KNH1 141833Z 28004KT 37/11 A3002 RMK A01 T03670113  RH  022%=      5-min Rain = 0
KNH1 141834Z 23003KT 37/12 A3002 RMK A01 T03690115  RH  022%=      5-min Rain = 0
KNH1 141835Z 21001KT 37/12 A3002 RMK A01 T03690115  RH  022%=      5-min Rain = 0
KNH1 141836Z 28002KT 37/11 A3002 RMK A01 T03690114  RH  021%=      5-min Rain = 0
KNH1 141837Z 28002KT 37/11 A3002 RMK A01 T03700113  RH  021%=      5-min Rain = 0
KNH1 141838Z 28002KT 37/11 A3002 RMK A01 T03710112  RH  021%=      5-min Rain = 0
KNH1 141839Z 30005KT 37/11 A3002 RMK A01 T03720113  RH  021%=      5-min Rain = 0
KNH1 141840Z 30006KT 37/11 A3002 RMK A01 T03740112  RH  021%=      5-min Rain = 0
KNH1 141841Z 29005KT 37/11 A3002 RMK A01 T03740113  RH  021%=      5-min Rain = 0
KNH1 141842Z 29003KT 37/11 A3002 RMK A01 T03740114  RH  021%=      5-min Rain = 0
KNH1 141843Z 31004KT 38/12 A3002 RMK A01 T03750117  RH  021%=      5-min Rain = 0
KNH1 141844Z 27004KT 38/12 A3002 RMK A01 T03770121  RH  022%=      5-min Rain = 0
KNH1 141845Z 27002KT 38/12 A3002 RMK A01 T03800122  RH  021%=      5-min Rain = 0
KNH1 141846Z 30003KT 38/12 A3002 RMK A01 T03810121  RH  021%=      5-min Rain = 0
KNH1 141847Z 32003KT 38/12 A3002 RMK A01 T03820121  RH  021%=      5-min Rain = 0
KNH1 141848Z 32004KT 38/12 A3002 RMK A01 T03820122  RH  021%=      5-min Rain = 0
KNH1 141849Z 30003KT 38/12 A3002 RMK A01 T03840117  RH  020%=      5-min Rain = 0
KNH1 141850Z 29003KT 38/12 A3002 RMK A01 T03810117  RH  021%=      5-min Rain = 0
KNH1 141851Z 33003KT 38/12 A3002 RMK A01 T03810117  RH  021%=      5-min Rain = 0
KNH1 141852Z 31005KT 38/11 A3002 RMK A01 T03820112  RH  020%=      5-min Rain = 0
KNH1 141853Z 33006KT 38/12 A3002 RMK A01 T03820115  RH  020%=      5-min Rain = 0
KNH1 141854Z 33006KT 38/12 A3002 RMK A01 T03830115  RH  020%=      5-min Rain = 0
KNH1 141855Z 34005KT 38/12 A3002 RMK A01 T03830116  RH  020%=      5-min Rain = 0
KNH1 141856Z 34005KT 38/12 A3002 RMK A01 T03830121  RH  021%=      5-min Rain = 0
KNH1 141857Z 35003KT 38/12 A3002 RMK A01 T03840115  RH  020%=      5-min Rain = 0
KNH1 141858Z 29003KT 38/12 A3002 RMK A01 T03830119  RH  021%=      5-min Rain = 0
KNH1 141859Z 30002KT 38/12 A3002 RMK A01 T03840116  RH  020%=      5-min Rain = 0
KNH1 141900Z 21000KT 38/11 A3002 RMK A01 T03840114  RH  020%=      5-min Rain = 0
KNH1 141901Z 28002KT 39/12 A3002 RMK A01 T03850116  RH  020%=      5-min Rain = 0
KNH1 141902Z 26003KT 39/12 A3002 RMK A01 T03870116  RH  020%=      5-min Rain = 0
KNH1 141903Z 26005KT 39/11 A3002 RMK A01 T03880111  RH  019%=      5-min Rain = 0
KNH1 141904Z 22002KT 39/11 A3002 RMK A01 T03860108  RH  019%=      5-min Rain = 0
KNH1 141905Z 21002KT 38/11 A3002 RMK A01 T03840110  RH  019%=      5-min Rain = 0
KNH1 141906Z 22002KT 38/11 A3002 RMK A01 T03830111  RH  020%=      5-min Rain = 0
KNH1 141907Z 25003KT 38/12 A3002 RMK A01 T03830115  RH  020%=      5-min Rain = 0
KNH1 141908Z 25004KT 39/12 A3002 RMK A01 T03880116  RH  020%=      5-min Rain = 0
KNH1 141909Z 22004KT 39/11 A3002 RMK A01 T03890113  RH  019%=      5-min Rain = 0
KNH1 141910Z 23005KT 39/11 A3002 RMK A01 T03870114  RH  020%=      5-min Rain = 0
KNH1 141911Z 22004KT 38/11 A3002 RMK A01 T03840112  RH  020%=      5-min Rain = 0
KNH1 141912Z 22004KT 38/11 A3002 RMK A01 T03830113  RH  020%=      5-min Rain = 0
KNH1 141913Z 21006KT 38/12 A3002 RMK A01 T03820115  RH  020%=      5-min Rain = 0
KNH1 141914Z 22007KT 39/12 A3002 RMK A01 T03880115  RH  020%=      5-min Rain = 0
KNH1 141915Z 22008KT 39/11 A3002 RMK A01 T03900108  RH  019%=      5-min Rain = 0
KNH1 141916Z 21006KT 39/11 A3002 RMK A01 T03900105  RH  018%=      5-min Rain = 0
KNH1 141917Z 21008KT 39/11 A3002 RMK A01 T03900108  RH  018%=      5-min Rain = 0
KNH1 141918Z 20010KT 39/11 A3002 RMK A01 T03900111  RH  019%=      5-min Rain = 0
KNH1 141919Z 20008KT 39/11 A3002 RMK A01 T03910107  RH  018%=      5-min Rain = 0
KNH1 141920Z 22006KT 39/10 A3002 RMK A01 T03890103  RH  018%=      5-min Rain = 0
KNH1 141921Z 23009KT 39/11 A3002 RMK A01 T03860110  RH  019%=      5-min Rain = 0
KNH1 141922Z 24009KT 39/11 A3002 RMK A01 T03860110  RH  019%=      5-min Rain = 0
KNH1 141923Z 23007KT 39/11 A3002 RMK A01 T03880112  RH  019%=      5-min Rain = 0
KNH1 141924Z 22008KT 39/11 A3002 RMK A01 T03900109  RH  019%=      5-min Rain = 0
KNH1 141925Z 20007KT 39/12 A3001 RMK A01 T03880115  RH  020%=      5-min Rain = 0
KNH1 141926Z 20009KT 39/12 A3001 RMK A01 T03890119  RH  020%=      5-min Rain = 0
KNH1 141927Z 20007KT 39/11 A3001 RMK A01 T03890114  RH  019%=      5-min Rain = 0
KNH1 141928Z 22007KT 39/12 A3001 RMK A01 T03870116  RH  020%=      5-min Rain = 0
KNH1 141929Z 23007KT 39/11 A3001 RMK A01 T03870113  RH  019%=      5-min Rain = 0
KNH1 141930Z 20008KT 39/11 A3001 RMK A01 T03870111  RH  019%=      5-min Rain = 0
KNH1 141931Z 21006KT 38/11 A3001 RMK A01 T03840112  RH  020%=      5-min Rain = 0
KNH1 141932Z 21005KT 38/11 A3001 RMK A01 T03820108  RH  019%=      5-min Rain = 0
KNH1 141933Z 19006KT 38/11 A3001 RMK A01 T03820111  RH  020%=      5-min Rain = 0
KNH1 141934Z 19006KT 38/10 A3001 RMK A01 T03810104  RH  019%=      5-min Rain = 0
KNH1 141935Z 20005KT 38/11 A3001 RMK A01 T03780110  RH  020%=      5-min Rain = 0
KNH1 141936Z 21008KT 38/11 A3001 RMK A01 T03810108  RH  020%=      5-min Rain = 0
KNH1 141937Z 22006KT 38/10 A3001 RMK A01 T03800098  RH  018%=      5-min Rain = 0
KNH1 141938Z 21005KT 38/10 A3001 RMK A01 T03790099  RH  018%=      5-min Rain = 0
KNH1 141939Z 21007KT 38/10 A3001 RMK A01 T03790100  RH  019%=      5-min Rain = 0
KNH1 141940Z 20009KT 38/11 A3001 RMK A01 T03790106  RH  019%=      5-min Rain = 0
KNH1 141941Z 19008KT 38/11 A3001 RMK A01 T03780105  RH  019%=      5-min Rain = 0
KNH1 141942Z 20007KT 38/11 A3001 RMK A01 T03780109  RH  020%=      5-min Rain = 0
KNH1 141943Z 20008KT 38/10 A3001 RMK A01 T03780101  RH  019%=      5-min Rain = 0
KNH1 141944Z 20006KT 38/09 A3001 RMK A01 T03790092  RH  018%=      5-min Rain = 0
KNH1 141945Z 21007KT 38/10 A3001 RMK A01 T03800099  RH  018%=      5-min Rain = 0
KNH1 141946Z 21006KT 38/10 A3001 RMK A01 T03810100  RH  018%=      5-min Rain = 0
KNH1 141947Z 20006KT 38/10 A3001 RMK A01 T03810100  RH  018%=      5-min Rain = 0
KNH1 141948Z 18006KT 38/10 A3001 RMK A01 T03800104  RH  019%=      5-min Rain = 0
KNH1 141949Z 19007KT 38/11 A3001 RMK A01 T03790105  RH  019%=      5-min Rain = 0
KNH1 141950Z 21006KT 38/11 A3001 RMK A01 T03790111  RH  020%=      5-min Rain = 0
KNH1 141951Z 22005KT 38/10 A30 RMK A01 T03820102  RH  019%=      5-min Rain = 0
KNH1 141952Z 22006KT 38/10 A30 RMK A01 T03820101  RH  018%=      5-min Rain = 0
KNH1 141953Z 21008KT 38/11 A30 RMK A01 T03810109  RH  020%=      5-min Rain = 0
KNH1 141954Z 21008KT 38/11 A30 RMK A01 T03810105  RH  019%=      5-min Rain = 0
KNH1 141955Z 20006KT 38/11 A30 RMK A01 T03810105  RH  019%=      5-min Rain = 0
KNH1 141956Z 21009KT 38/11 A30 RMK A01 T03810106  RH  019%=      5-min Rain = 0
KNH1 141957Z 22009KT 39/10 A30 RMK A01 T03850101  RH  018%=      5-min Rain = 0
KNH1 141958Z 22010KT 39/10 A30 RMK A01 T03860095  RH  017%=      5-min Rain = 0
KNH1 141959Z 21007KT 39/09 A30 RMK A01 T03860093  RH  017%=      5-min Rain = 0
KNH1 142000Z 22006KT 39/10 A30 RMK A01 T03850096  RH  017%=      5-min Rain = 0
KNH1 142001Z 20006KT 39/09 A30 RMK A01 T03850091  RH  017%=      5-min Rain = 0
KNH1 142002Z 21006KT 38/10 A30 RMK A01 T03840095  RH  017%=      5-min Rain = 0
KNH1 142003Z 21007KT 39/10 A30 RMK A01 T03850095  RH  017%=      5-min Rain = 0
KNH1 142004Z 21009KT 39/10 A30 RMK A01 T03860103  RH  018%=      5-min Rain = 0
KNH1 142005Z 21007KT 39/10 A30 RMK A01 T03870102  RH  018%=      5-min Rain = 0
KNH1 142006Z 23010KT 39/11 A2999 RMK A01 T03880106  RH  019%=      5-min Rain = 0
KNH1 142007Z 23010KT 39/10 A2999 RMK A01 T03900100  RH  018%=      5-min Rain = 0
KNH1 142008Z 24010KT 39/10 A2999 RMK A01 T03900098  RH  017%=      5-min Rain = 0
KNH1 142009Z 24010KT 39/10 A2999 RMK A01 T03890097  RH  017%=      5-min Rain = 0
KNH1 142010Z 25009KT 39/09 A2999 RMK A01 T03910094  RH  017%=      5-min Rain = 0
KNH1 142011Z 25006KT 39/09 A2999 RMK A01 T03910090  RH  016%=      5-min Rain = 0
KNH1 142012Z 24008KT 39/10 A2999 RMK A01 T03910099  RH  017%=      5-min Rain = 0
KNH1 142013Z 26008KT 39/10 A2999 RMK A01 T03940099  RH  017%=      5-min Rain = 0
KNH1 142014Z 25007KT 39/09 A2999 RMK A01 T03930094  RH  016%=      5-min Rain = 0
KNH1 142015Z 23007KT 39/09 A2999 RMK A01 T03910093  RH  017%=      5-min Rain = 0
KNH1 142016Z 23005KT 39/10 A2999 RMK A01 T03910096  RH  017%=      5-min Rain = 0
KNH1 142017Z 23004KT 39/10 A2999 RMK A01 T03930097  RH  017%=      5-min Rain = 0
KNH1 142018Z 22004KT 39/10 A2999 RMK A01 T03940097  RH  017%=      5-min Rain = 0
KNH1 142019Z 25006G11KT 39/10 A2999 RMK A01 T03930098  RH  017%=      5-min Rain = 0
KNH1 142020Z 25007KT 40/10 A2999 RMK A01 T03950100  RH  017%=      5-min Rain = 0
KNH1 142021Z 23007KT 39/10 A2999 RMK A01 T03940101  RH  017%=      5-min Rain = 0
KNH1 142022Z 23007KT 39/10 A2999 RMK A01 T03940101  RH  017%=      5-min Rain = 0
KNH1 142023Z 22005KT 39/10 A2999 RMK A01 T03930096  RH  017%=      5-min Rain = 0
KNH1 142024Z 24005KT 39/10 A2999 RMK A01 T03910097  RH  017%=      5-min Rain = 0
KNH1 142025Z 24005KT 40/10 A2998 RMK A01 T03960103  RH  017%=      5-min Rain = 0
KNH1 142026Z 26008KT 40/10 A2998 RMK A01 T04010099  RH  016%=      5-min Rain = 0
KNH1 142027Z 25005KT 40/10 A2998 RMK A01 T03990098  RH  016%=      5-min Rain = 0
KNH1 142028Z 23007KT 40/10 A2998 RMK A01 T03980098  RH  017%=      5-min Rain = 0
KNH1 142029Z 25006KT 40/10 A2998 RMK A01 T03980101  RH  017%=      5-min Rain = 0
KNH1 142030Z 24006KT 40/09 A2998 RMK A01 T04010088  RH  015%=      5-min Rain = 0
KNH1 142031Z 22007KT 40/09 A2998 RMK A01 T03970086  RH  015%=      5-min Rain = 0
KNH1 142032Z 21007KT 40/09 A2998 RMK A01 T03980091  RH  016%=      5-min Rain = 0
KNH1 142033Z 23009G15KT 40/09 A2998 RMK A01 T04010086  RH  015%=      5-min Rain = 0
KNH1 142034Z 23011KT 40/08 A2998 RMK A01 T03990080  RH  015%=      5-min Rain = 0
KNH1 142035Z 24009KT 40/08 A2998 RMK A01 T04000077  RH  014%=      5-min Rain = 0
KNH1 142036Z 22009KT 40/08 A2998 RMK A01 T04030082  RH  014%=      5-min Rain = 0
KNH1 142037Z 23006KT 40/08 A2998 RMK A01 T04010079  RH  014%=      5-min Rain = 0
KNH1 142038Z 23005KT 40/08 A2998 RMK A01 T03960081  RH  015%=      5-min Rain = 0
KNH1 142039Z 23006KT 40/08 A2997 RMK A01 T03950083  RH  015%=      5-min Rain = 0
KNH1 142040Z 20006KT 40/09 A2997 RMK A01 T03970087  RH  016%=      5-min Rain = 0
KNH1 142041Z 21007KT 40/09 A2997 RMK A01 T03980089  RH  016%=      5-min Rain = 0
KNH1 142042Z 23009KT 40/08 A2997 RMK A01 T03990082  RH  015%=      5-min Rain = 0
KNH1 142043Z 23011KT 40/08 A2997 RMK A01 T04000078  RH  014%=      5-min Rain = 0
KNH1 142044Z 23008KT 40/08 A2997 RMK A01 T04000076  RH  014%=      5-min Rain = 0
KNH1 142045Z 22007KT 40/08 A2997 RMK A01 T03980077  RH  014%=      5-min Rain = 0
KNH1 142046Z 22008KT 40/08 A2997 RMK A01 T03970080  RH  015%=      5-min Rain = 0
KNH1 142047Z 21007KT 40/08 A2997 RMK A01 T03970080  RH  015%=      5-min Rain = 0
KNH1 142048Z 22008KT 40/09 A2997 RMK A01 T03960087  RH  015%=      5-min Rain = 0
KNH1 142049Z 22010KT 40/09 A2997 RMK A01 T04020087  RH  015%=      5-min Rain = 0
KNH1 142050Z 22009KT 40/09 A2997 RMK A01 T04030085  RH  015%=      5-min Rain = 0
KNH1 142051Z 22007KT 40/09 A2997 RMK A01 T04000085  RH  015%=      5-min Rain = 0
KNH1 142052Z 25009KT 40/09 A2997 RMK A01 T04010087  RH  015%=      5-min Rain = 0
KNH1 142053Z 22009KT 40/09 A2997 RMK A01 T04020085  RH  015%=      5-min Rain = 0
KNH1 142054Z 21010KT 40/09 A2997 RMK A01 T04010086  RH  015%=      5-min Rain = 0
KNH1 142055Z 21010KT 40/09 A2997 RMK A01 T04010086  RH  015%=      5-min Rain = 0
KNH1 142056Z 23012KT 40/09 A2997 RMK A01 T04000086  RH  015%=      5-min Rain = 0
KNH1 142057Z 24010KT 40/08 A2997 RMK A01 T04020084  RH  015%=      5-min Rain = 0
KNH1 142058Z 22010KT 40/08 A2996 RMK A01 T04020084  RH  015%=      5-min Rain = 0
KNH1 142059Z 23012KT 40/09 A2996 RMK A01 T04010085  RH  015%=      5-min Rain = 0
KNH1 142100Z 24014KT 40/09 A2996 RMK A01 T04010091  RH  016%=      5-min Rain = 0
KNH1 142101Z 24012KT 40/09 A2996 RMK A01 T04010091  RH  016%=      5-min Rain = 0
KNH1 142102Z 22010KT 40/08 A2996 RMK A01 T04000084  RH  015%=      5-min Rain = 0
KNH1 142103Z 23009KT 40/08 A2996 RMK A01 T04000080  RH  014%=      5-min Rain = 0
KNH1 142104Z 24012KT 40/08 A2996 RMK A01 T04000082  RH  015%=      5-min Rain = 0
KNH1 142105Z 25013KT 40/09 A2996 RMK A01 T04000087  RH  015%=      5-min Rain = 0
KNH1 142106Z 24011KT 40/09 A2996 RMK A01 T04000088  RH  015%=      5-min Rain = 0
KNH1 142107Z 22014KT 40/09 A2996 RMK A01 T03980090  RH  016%=      5-min Rain = 0
KNH1 142108Z 23011KT 40/09 A2996 RMK A01 T03960091  RH  016%=      5-min Rain = 0
KNH1 142109Z 23015KT 40/09 A2996 RMK A01 T03970092  RH  016%=      5-min Rain = 0
KNH1 142110Z 23011KT 40/09 A2996 RMK A01 T03970089  RH  016%=      5-min Rain = 0
KNH1 142111Z 23012KT 40/09 A2996 RMK A01 T03960087  RH  016%=      5-min Rain = 0
KNH1 142112Z 26012KT 40/09 A2996 RMK A01 T03970091  RH  016%=      5-min Rain = 0
KNH1 142113Z 26012KT 40/09 A2996 RMK A01 T03990091  RH  016%=      5-min Rain = 0
KNH1 142114Z 25011KT 40/09 A2996 RMK A01 T03990090  RH  016%=      5-min Rain = 0
KNH1 142115Z 26010KT 40/09 A2996 RMK A01 T04000089  RH  015%=      5-min Rain = 0
KNH1 142116Z 25011KT 40/09 A2996 RMK A01 T03990090  RH  016%=      5-min Rain = 0
KNH1 142117Z 25010KT 40/09 A2996 RMK A01 T03980089  RH  016%=      5-min Rain = 0
KNH1 142118Z 26007KT 40/09 A2996 RMK A01 T03980094  RH  016%=      5-min Rain = 0
KNH1 142119Z 26010KT 40/10 A2996 RMK A01 T04030097  RH  016%=      5-min Rain = 0
KNH1 142120Z 25008KT 41/10 A2996 RMK A01 T04060097  RH  016%=      5-min Rain = 0
KNH1 142121Z 26008KT 41/10 A2996 RMK A01 T04070096  RH  016%=      5-min Rain = 0
KNH1 142122Z 27010KT 41/09 A2996 RMK A01 T04070093  RH  015%=      5-min Rain = 0
KNH1 142123Z 27008KT 40/09 A2996 RMK A01 T04040089  RH  015%=      5-min Rain = 0
KNH1 142124Z 27009KT 40/09 A2996 RMK A01 T04030090  RH  015%=      5-min Rain = 0
KNH1 142125Z 25011G16KT 40/09 A2996 RMK A01 T04020092  RH  016%=      5-min Rain = 0
KNH1 142126Z 25014KT 40/09 A2996 RMK A01 T04040088  RH  015%=      5-min Rain = 0
KNH1 142127Z 25014KT 40/09 A2996 RMK A01 T04030088  RH  015%=      5-min Rain = 0
KNH1 142128Z 25013KT 40/09 A2996 RMK A01 T04020085  RH  015%=      5-min Rain = 0
KNH1 142129Z 25011KT 40/08 A2996 RMK A01 T04020084  RH  015%=      5-min Rain = 0
KNH1 142130Z 25010KT 40/09 A2996 RMK A01 T04020085  RH  015%=      5-min Rain = 0
KNH1 142131Z 23010KT 40/08 A2996 RMK A01 T04030084  RH  015%=      5-min Rain = 0
KNH1 142132Z 23009KT 40/08 A2996 RMK A01 T04010084  RH  015%=      5-min Rain = 0
KNH1 142133Z 21006KT 40/08 A2996 RMK A01 T03980082  RH  015%=      5-min Rain = 0
KNH1 142134Z 22007KT 40/08 A2995 RMK A01 T03960084  RH  015%=      5-min Rain = 0
KNH1 142135Z 25008KT 40/09 A2995 RMK A01 T03970087  RH  015%=      5-min Rain = 0
KNH1 142136Z 26005KT 40/08 A2995 RMK A01 T04020084  RH  015%=      5-min Rain = 0
KNH1 142137Z 24006KT 40/08 A2995 RMK A01 T04020083  RH  015%=      5-min Rain = 0
KNH1 142138Z 23006KT 40/08 A2995 RMK A01 T04010082  RH  015%=      5-min Rain = 0
KNH1 142139Z 22009KT 40/09 A2995 RMK A01 T03990085  RH  015%=      5-min Rain = 0
KNH1 142140Z 24010KT 40/08 A2995 RMK A01 T03990084  RH  015%=      5-min Rain = 0
KNH1 142141Z 25009KT 40/09 A2995 RMK A01 T04000087  RH  015%=      5-min Rain = 0
KNH1 142142Z 26008KT 40/08 A2995 RMK A01 T04020082  RH  015%=      5-min Rain = 0
KNH1 142143Z 26006KT 40/09 A2995 RMK A01 T04020087  RH  015%=      5-min Rain = 0
KNH1 142144Z 25011KT 40/09 A2995 RMK A01 T04030085  RH  015%=      5-min Rain = 0
KNH1 142145Z 25012KT 40/09 A2995 RMK A01 T04020087  RH  015%=      5-min Rain = 0
KNH1 142146Z 24010KT 40/09 A2995 RMK A01 T04020086  RH  015%=      5-min Rain = 0
KNH1 142147Z 25009KT 40/09 A2995 RMK A01 T04020086  RH  015%=      5-min Rain = 0
KNH1 142148Z 22006KT 40/09 A2995 RMK A01 T04010085  RH  015%=      5-min Rain = 0
KNH1 142149Z 22008KT 40/09 A2995 RMK A01 T03980086  RH  015%=      5-min Rain = 0
KNH1 142150Z 22007KT 40/09 A2995 RMK A01 T03980087  RH  015%=      5-min Rain = 0
KNH1 142151Z 25007KT 40/09 A2995 RMK A01 T03990089  RH  016%=      5-min Rain = 0
KNH1 142152Z 27008KT 40/09 A2995 RMK A01 T04010091  RH  016%=      5-min Rain = 0
KNH1 142153Z 27009KT 40/10 A2995 RMK A01 T04020095  RH  016%=      5-min Rain = 0
KNH1 142154Z 21007KT 40/09 A2995 RMK A01 T04030091  RH  015%=      5-min Rain = 0
KNH1 142155Z 24010KT 40/10 A2995 RMK A01 T04010095  RH  016%=      5-min Rain = 0
KNH1 142156Z 25011KT 40/09 A2995 RMK A01 T04020093  RH  016%=      5-min Rain = 0
KNH1 142157Z 23009KT 40/09 A2995 RMK A01 T04040094  RH  016%=      5-min Rain = 0
KNH1 142158Z 23010KT 41/09 A2995 RMK A01 T04050093  RH  015%=      5-min Rain = 0
KNH1 142159Z 25014KT 40/09 A2995 RMK A01 T04040094  RH  016%=      5-min Rain = 0
KNH1 142200Z 26014KT 40/09 A2995 RMK A01 T04040091  RH  015%=      5-min Rain = 0
KNH1 142201Z 26012KT 40/09 A2995 RMK A01 T04030088  RH  015%=      5-min Rain = 0
KNH1 142202Z 24011G22KT 40/09 A2995 RMK A01 T04000089  RH  015%=      5-min Rain = 0
KNH1 142203Z 25016KT 40/09 A2995 RMK A01 T03990092  RH  016%=      5-min Rain = 0
KNH1 142204Z 23017KT 40/09 A2995 RMK A01 T03990091  RH  016%=      5-min Rain = 0
KNH1 142205Z 24017KT 40/09 A2995 RMK A01 T03990090  RH  016%=      5-min Rain = 0
KNH1 142206Z 24015KT 40/09 A2995 RMK A01 T03980091  RH  016%=      5-min Rain = 0
KNH1 142207Z 23017KT 40/09 A2995 RMK A01 T03970093  RH  016%=      5-min Rain = 0
KNH1 142208Z 23014KT 40/09 A2995 RMK A01 T03970091  RH  016%=      5-min Rain = 0
KNH1 142209Z 23012KT 40/09 A2995 RMK A01 T03970093  RH  016%=      5-min Rain = 0
KNH1 142210Z 23016KT 40/09 A2995 RMK A01 T03970092  RH  016%=      5-min Rain = 0
KNH1 142211Z 24016KT 40/09 A2995 RMK A01 T03960090  RH  016%=      5-min Rain = 0
KNH1 142212Z 24015KT 40/09 A2995 RMK A01 T03960089  RH  016%=      5-min Rain = 0
KNH1 142213Z 22014KT 40/09 A2995 RMK A01 T03960094  RH  016%=      5-min Rain = 0
KNH1 142214Z 22016KT 40/09 A2995 RMK A01 T03970092  RH  016%=      5-min Rain = 0
KNH1 142215Z 24015KT 40/09 A2995 RMK A01 T03970092  RH  016%=      5-min Rain = 0
KNH1 142216Z 24014KT 40/09 A2995 RMK A01 T03960088  RH  016%=      5-min Rain = 0
KNH1 142217Z 24013KT 39/09 A2995 RMK A01 T03940088  RH  016%=      5-min Rain = 0
KNH1 142218Z 23010KT 39/09 A2995 RMK A01 T03940088  RH  016%=      5-min Rain = 0
KNH1 142219Z 24013KT 39/09 A2995 RMK A01 T03940089  RH  016%=      5-min Rain = 0
KNH1 142220Z 24014KT 40/09 A2995 RMK A01 T03950091  RH  016%=      5-min Rain = 0
KNH1 142221Z 25012KT 40/09 A2995 RMK A01 T03950091  RH  016%=      5-min Rain = 0
KNH1 142222Z 23013KT 40/10 A2995 RMK A01 T03950096  RH  017%=      5-min Rain = 0
KNH1 142223Z 22016KT 40/09 A2995 RMK A01 T03960092  RH  016%=      5-min Rain = 0
KNH1 142224Z 23014KT 40/09 A2995 RMK A01 T03950090  RH  016%=      5-min Rain = 0
KNH1 142225Z 22014KT 39/09 A2995 RMK A01 T03940088  RH  016%=      5-min Rain = 0
KNH1 142226Z 23013KT 39/09 A2995 RMK A01 T03940089  RH  016%=      5-min Rain = 0
KNH1 142227Z 23013KT 40/09 A2995 RMK A01 T03950088  RH  016%=      5-min Rain = 0
KNH1 142228Z 23011KT 39/09 A2995 RMK A01 T03940087  RH  016%=      5-min Rain = 0
KNH1 142229Z 22012KT 39/09 A2995 RMK A01 T03940091  RH  016%=      5-min Rain = 0
KNH1 142230Z 22013KT 39/09 A2995 RMK A01 T03940089  RH  016%=      5-min Rain = 0
KNH1 142231Z 21011KT 39/09 A2995 RMK A01 T03940088  RH  016%=      5-min Rain = 0
KNH1 142232Z 22013G19KT 39/09 A2995 RMK A01 T03930091  RH  016%=      5-min Rain = 0
KNH1 142233Z 23014KT 39/09 A2995 RMK A01 T03930088  RH  016%=      5-min Rain = 0
KNH1 142234Z 24010KT 39/09 A2995 RMK A01 T03920089  RH  016%=      5-min Rain = 0
KNH1 142235Z 24011KT 39/09 A2995 RMK A01 T03930088  RH  016%=      5-min Rain = 0
KNH1 142236Z 25013KT 39/09 A2995 RMK A01 T03920087  RH  016%=      5-min Rain = 0
KNH1 142237Z 26013KT 39/09 A2995 RMK A01 T03940090  RH  016%=      5-min Rain = 0
KNH1 142238Z 26011KT 39/09 A2995 RMK A01 T03940087  RH  016%=      5-min Rain = 0
KNH1 142239Z 27012KT 40/09 A2995 RMK A01 T03950089  RH  016%=      5-min Rain = 0
KNH1 142240Z 24014KT 40/09 A2995 RMK A01 T03950088  RH  016%=      5-min Rain = 0
KNH1 142241Z 24013KT 40/09 A2995 RMK A01 T03950085  RH  015%=      5-min Rain = 0
KNH1 142242Z 26011KT 39/09 A2995 RMK A01 T03930088  RH  016%=      5-min Rain = 0
KNH1 142243Z 24011KT 40/09 A2995 RMK A01 T03950089  RH  016%=      5-min Rain = 0
KNH1 142244Z 23012KT 40/09 A2995 RMK A01 T03950087  RH  016%=      5-min Rain = 0
KNH1 142245Z 23011KT 39/09 A2995 RMK A01 T03930088  RH  016%=      5-min Rain = 0
KNH1 142246Z 24009KT 39/09 A2995 RMK A01 T03920085  RH  016%=      5-min Rain = 0
KNH1 142247Z 23009KT 39/09 A2995 RMK A01 T03920092  RH  016%=      5-min Rain = 0
KNH1 142248Z 23010KT 40/09 A2995 RMK A01 T03950087  RH  016%=      5-min Rain = 0
KNH1 142249Z 23009G15KT 39/09 A2995 RMK A01 T03930090  RH  016%=      5-min Rain = 0
KNH1 142250Z 23011KT 39/09 A2995 RMK A01 T03940089  RH  016%=      5-min Rain = 0
KNH1 142251Z 22011KT 39/09 A2995 RMK A01 T03940089  RH  016%=      5-min Rain = 0
KNH1 142252Z 23009KT 39/09 A2995 RMK A01 T03940089  RH  016%=      5-min Rain = 0
KNH1 142253Z 23012KT 39/09 A2995 RMK A01 T03930087  RH  016%=      5-min Rain = 0
KNH1 142254Z 24011KT 39/08 A2995 RMK A01 T03900083  RH  016%=      5-min Rain = 0
KNH1 142255Z 25008KT 39/08 A2995 RMK A01 T03880084  RH  016%=      5-min Rain = 0
KNH1 142256Z 25007KT 39/09 A2995 RMK A01 T03890085  RH  016%=      5-min Rain = 0
KNH1 142257Z 25010G15KT 39/09 A2995 RMK A01 T03910089  RH  016%=      5-min Rain = 0
KNH1 142258Z 24013KT 39/09 A2995 RMK A01 T03920087  RH  016%=      5-min Rain = 0
KNH1 142259Z 24011KT 39/09 A2995 RMK A01 T03910089  RH  016%=      5-min Rain = 0
KNH1 142300Z 23013KT 39/09 A2995 RMK A01 T03910092  RH  017%=      5-min Rain = 0
KNH1 142301Z 23012KT 39/09 A2995 RMK A01 T03910089  RH  016%=      5-min Rain = 0
KNH1 142302Z 24014KT 39/09 A2995 RMK A01 T03900090  RH  016%=      5-min Rain = 0
KNH1 142303Z 24012KT 39/09 A2995 RMK A01 T03890089  RH  016%=      5-min Rain = 0
KNH1 142304Z 24010KT 39/09 A2995 RMK A01 T03900089  RH  016%=      5-min Rain = 0
KNH1 142305Z 24011KT 39/09 A2995 RMK A01 T03910087  RH  016%=      5-min Rain = 0
KNH1 142306Z 22009KT 39/09 A2995 RMK A01 T03910093  RH  017%=      5-min Rain = 0
KNH1 142307Z 22010KT 39/09 A2995 RMK A01 T03920091  RH  016%=      5-min Rain = 0
KNH1 142308Z 22012KT 39/09 A2995 RMK A01 T03920089  RH  016%=      5-min Rain = 0
KNH1 142309Z 22012KT 39/09 A2995 RMK A01 T03900086  RH  016%=      5-min Rain = 0
KNH1 142310Z 22011KT 39/08 A2995 RMK A01 T03890084  RH  016%=      5-min Rain = 0
KNH1 142311Z 22012KT 39/09 A2995 RMK A01 T03890088  RH  016%=      5-min Rain = 0
KNH1 142312Z 22011KT 39/09 A2995 RMK A01 T03890087  RH  016%=      5-min Rain = 0
KNH1 142313Z 23011KT 39/09 A2995 RMK A01 T03890086  RH  016%=      5-min Rain = 0
KNH1 142314Z 22011KT 39/09 A2995 RMK A01 T03890087  RH  016%=      5-min Rain = 0
KNH1 142315Z 23012KT 39/08 A2995 RMK A01 T03900084  RH  016%=      5-min Rain = 0
KNH1 142316Z 24011KT 39/08 A2995 RMK A01 T03890084  RH  016%=      5-min Rain = 0
KNH1 142317Z 23009KT 39/08 A2995 RMK A01 T03890084  RH  016%=      5-min Rain = 0
KNH1 142318Z 23010KT 39/09 A2995 RMK A01 T03890087  RH  016%=      5-min Rain = 0
KNH1 142319Z 22011KT 39/09 A2995 RMK A01 T03890085  RH  016%=      5-min Rain = 0
KNH1 142320Z 21011KT 39/09 A2995 RMK A01 T03870085  RH  016%=      5-min Rain = 0
KNH1 142321Z 22010KT 39/09 A2995 RMK A01 T03860085  RH  016%=      5-min Rain = 0
KNH1 142322Z 22011KT 39/09 A2995 RMK A01 T03860085  RH  016%=      5-min Rain = 0
KNH1 142323Z 22011KT 39/09 A2995 RMK A01 T03860087  RH  016%=      5-min Rain = 0
KNH1 142324Z 23012KT 39/08 A2995 RMK A01 T03870083  RH  016%=      5-min Rain = 0
KNH1 142325Z 22009KT 39/09 A2995 RMK A01 T03870085  RH  016%=      5-min Rain = 0
KNH1 142326Z 22010KT 39/09 A2995 RMK A01 T03870086  RH  016%=      5-min Rain = 0
KNH1 142327Z 21010KT 39/09 A2995 RMK A01 T03880088  RH  016%=      5-min Rain = 0
KNH1 142328Z 22008KT 39/09 A2995 RMK A01 T03900090  RH  016%=      5-min Rain = 0
KNH1 142329Z 22009KT 39/09 A2995 RMK A01 T03910087  RH  016%=      5-min Rain = 0
KNH1 142330Z 22011KT 39/09 A2995 RMK A01 T03900088  RH  016%=      5-min Rain = 0
KNH1 142331Z 23009KT 39/09 A2995 RMK A01 T03890087  RH  016%=      5-min Rain = 0
KNH1 142332Z 22009KT 39/08 A2995 RMK A01 T03880084  RH  016%=      5-min Rain = 0
KNH1 142333Z 21010KT 39/09 A2995 RMK A01 T03880086  RH  016%=      5-min Rain = 0
KNH1 142334Z 22010KT 39/08 A2995 RMK A01 T03870083  RH  016%=      5-min Rain = 0
KNH1 142335Z 22009KT 39/08 A2995 RMK A01 T03860083  RH  016%=      5-min Rain = 0
KNH1 142336Z 21010KT 39/08 A2995 RMK A01 T03850083  RH  016%=      5-min Rain = 0
KNH1 142337Z 22009KT 39/08 A2995 RMK A01 T03860082  RH  016%=      5-min Rain = 0
KNH1 142338Z 22009KT 39/08 A2995 RMK A01 T03850083  RH  016%=      5-min Rain = 0
KNH1 142339Z 22010KT 39/09 A2995 RMK A01 T03850085  RH  016%=      5-min Rain = 0
KNH1 142340Z 22010KT 39/08 A2995 RMK A01 T03850083  RH  016%=      5-min Rain = 0
KNH1 142341Z 22007KT 39/08 A2995 RMK A01 T03850081  RH  016%=      5-min Rain = 0
KNH1 142342Z 20008KT 39/08 A2995 RMK A01 T03850084  RH  016%=      5-min Rain = 0
KNH1 142343Z 23008KT 39/09 A2995 RMK A01 T03850090  RH  017%=      5-min Rain = 0
KNH1 142344Z 22009KT 39/08 A2995 RMK A01 T03860084  RH  016%=      5-min Rain = 0
KNH1 142345Z 22009KT 39/08 A2995 RMK A01 T03850083  RH  016%=      5-min Rain = 0
KNH1 142346Z 23008KT 39/08 A2995 RMK A01 T03860082  RH  016%=      5-min Rain = 0
KNH1 142347Z 23008KT 39/08 A2995 RMK A01 T03860084  RH  016%=      5-min Rain = 0
KNH1 142348Z 22007KT 39/09 A2995 RMK A01 T03860087  RH  016%=      5-min Rain = 0
KNH1 142349Z 22007KT 39/09 A2995 RMK A01 T03870088  RH  017%=      5-min Rain = 0
KNH1 142350Z 22009KT 39/08 A2995 RMK A01 T03870084  RH  016%=      5-min Rain = 0
KNH1 142351Z 22008KT 39/08 A2995 RMK A01 T03860081  RH  016%=      5-min Rain = 0
KNH1 142352Z 22008KT 39/08 A2995 RMK A01 T03860082  RH  016%=      5-min Rain = 0
KNH1 142353Z 22007KT 39/08 A2995 RMK A01 T03850083  RH  016%=      5-min Rain = 0
KNH1 142354Z 23007KT 38/09 A2995 RMK A01 T03840086  RH  017%=      5-min Rain = 0
KNH1 142355Z 22007KT 38/08 A2995 RMK A01 T03840082  RH  016%=      5-min Rain = 0
KNH1 142356Z 22008KT 38/08 A2995 RMK A01 T03840082  RH  016%=      5-min Rain = 0
KNH1 142357Z 22007KT 38/08 A2995 RMK A01 T03830083  RH  016%=      5-min Rain = 0
KNH1 142358Z 22007KT 38/09 A2995 RMK A01 T03830085  RH  016%=      5-min Rain = 0
KNH1 142359Z 21008KT 38/08 A2995 RMK A01 T03830084  RH  016%=      5-min Rain = 0
KNH1 150000Z 21007KT 38/09 A2995 RMK A01 T03820090  RH  017%=      5-min Rain = 0
KNH1 150001Z 21007KT 38/09 A2995 RMK A01 T03820091  RH  017%=      5-min Rain = 0
KNH1 150002Z 22008KT 38/09 A2995 RMK A01 T03820091  RH  017%=      5-min Rain = 0
KNH1 150003Z 22009KT 38/09 A2995 RMK A01 T03820085  RH  016%=      5-min Rain = 0
KNH1 150004Z 22008KT 38/09 A2995 RMK A01 T03810087  RH  017%=      5-min Rain = 0
KNH1 150005Z 21007KT 38/09 A2995 RMK A01 T03810090  RH  017%=      5-min Rain = 0
KNH1 150006Z 21008KT 38/09 A2995 RMK A01 T03810090  RH  017%=      5-min Rain = 0
KNH1 150007Z 22007KT 38/09 A2995 RMK A01 T03810091  RH  017%=      5-min Rain = 0
KNH1 150008Z 22009KT 38/09 A2995 RMK A01 T03800091  RH  017%=      5-min Rain = 0
KNH1 150009Z 22010KT 38/08 A2995 RMK A01 T03800084  RH  017%=      5-min Rain = 0
KNH1 150010Z 22008KT 38/09 A2995 RMK A01 T03800085  RH  017%=      5-min Rain = 0
KNH1 150011Z 22008KT 38/08 A2996 RMK A01 T03800084  RH  017%=      5-min Rain = 0
KNH1 150012Z 22008KT 38/08 A2996 RMK A01 T03800082  RH  016%=      5-min Rain = 0
KNH1 150013Z 23006KT 38/08 A2996 RMK A01 T03800084  RH  017%=      5-min Rain = 0
KNH1 150014Z 22006KT 38/09 A2996 RMK A01 T03800086  RH  017%=      5-min Rain = 0
KNH1 150015Z 22007KT 38/09 A2996 RMK A01 T03800085  RH  017%=      5-min Rain = 0
KNH1 150016Z 23007KT 38/08 A2996 RMK A01 T03800084  RH  017%=      5-min Rain = 0
KNH1 150017Z 22007KT 38/09 A2996 RMK A01 T03800085  RH  017%=      5-min Rain = 0
KNH1 150018Z 22006KT 38/09 A2996 RMK A01 T03800089  RH  017%=      5-min Rain = 0
KNH1 150019Z 22007KT 38/09 A2996 RMK A01 T03800092  RH  018%=      5-min Rain = 0
KNH1 150020Z 22006KT 38/09 A2996 RMK A01 T03790090  RH  017%=      5-min Rain = 0
KNH1 150021Z 23005KT 38/09 A2996 RMK A01 T03790090  RH  017%=      5-min Rain = 0
KNH1 150022Z 22005KT 38/09 A2996 RMK A01 T03800090  RH  017%=      5-min Rain = 0
KNH1 150023Z 22005KT 38/09 A2996 RMK A01 T03800091  RH  017%=      5-min Rain = 0
KNH1 150024Z 22006KT 38/10 A2996 RMK A01 T03800095  RH  018%=      5-min Rain = 0
KNH1 150025Z 22006KT 38/09 A2996 RMK A01 T03800089  RH  017%=      5-min Rain = 0
KNH1 150026Z 23005KT 38/09 A2996 RMK A01 T03790094  RH  018%=      5-min Rain = 0
KNH1 150027Z 22005KT 38/10 A2996 RMK A01 T03790097  RH  018%=      5-min Rain = 0
KNH1 150028Z 22006KT 38/09 A2996 RMK A01 T03790092  RH  018%=      5-min Rain = 0
KNH1 150029Z 22005KT 38/09 A2996 RMK A01 T03780093  RH  018%=      5-min Rain = 0
KNH1 150030Z 22006KT 38/09 A2996 RMK A01 T03780092  RH  018%=      5-min Rain = 0
KNH1 150031Z 22005KT 38/09 A2996 RMK A01 T03780092  RH  018%=      5-min Rain = 0
KNH1 150032Z 22005KT 38/09 A2996 RMK A01 T03780091  RH  018%=      5-min Rain = 0
KNH1 150033Z 22006KT 38/09 A2996 RMK A01 T03790093  RH  018%=      5-min Rain = 0
KNH1 150034Z 22005KT 38/09 A2996 RMK A01 T03780094  RH  018%=      5-min Rain = 0
KNH1 150035Z 22004KT 38/10 A2996 RMK A01 T03780095  RH  018%=      5-min Rain = 0
KNH1 150036Z 22005KT 38/09 A2996 RMK A01 T03770094  RH  018%=      5-min Rain = 0
KNH1 150037Z 22004KT 38/09 A2996 RMK A01 T03770094  RH  018%=      5-min Rain = 0
KNH1 150038Z 22004KT 38/10 A2996 RMK A01 T03770096  RH  018%=      5-min Rain = 0
KNH1 150039Z 22004KT 38/10 A2996 RMK A01 T03770098  RH  018%=      5-min Rain = 0
KNH1 150040Z 22004KT 38/10 A2997 RMK A01 T03770096  RH  018%=      5-min Rain = 0
KNH1 150041Z 21003KT 38/10 A2997 RMK A01 T03770095  RH  018%=      5-min Rain = 0
KNH1 150042Z 21003KT 38/10 A2997 RMK A01 T03760098  RH  019%=      5-min Rain = 0
KNH1 150043Z 20002KT 38/10 A2997 RMK A01 T03750097  RH  019%=      5-min Rain = 0
KNH1 150044Z 22000KT 37/10 A2997 RMK A01 T03740096  RH  019%=      5-min Rain = 0
KNH1 150045Z 06001KT 37/09 A2997 RMK A01 T03740094  RH  018%=      5-min Rain = 0
KNH1 150046Z 05003KT 37/09 A2998 RMK A01 T03740089  RH  018%=      5-min Rain = 0
KNH1 150047Z 04007KT 37/09 A2998 RMK A01 T03730088  RH  018%=      5-min Rain = 0
KNH1 150048Z 05008G16KT 37/09 A2998 RMK A01 T03720092  RH  018%=      5-min Rain = 0
KNH1 150049Z 08014G21KT 37/11 A2998 RMK A01 T03660107  RH  021%=      5-min Rain = 0
KNH1 150050Z 08017KT 36/11 A2998 RMK A01 T03570108  RH  022%=      5-min Rain = 0
KNH1 150051Z 07014KT 35/11 A2998 RMK A01 T03490108  RH  023%=      5-min Rain = 0
KNH1 150052Z 07010KT 35/11 A2998 RMK A01 T03450109  RH  024%=      5-min Rain = 0
KNH1 150053Z 08016KT 34/11 A2998 RMK A01 T03430110  RH  024%=      5-min Rain = 0
KNH1 150054Z 08015KT 34/11 A2998 RMK A01 T03410111  RH  025%=      5-min Rain = 0
KNH1 150055Z 08017KT 34/11 A2999 RMK A01 T03390112  RH  025%=      5-min Rain = 0
KNH1 150056Z 08016KT 34/11 A2999 RMK A01 T03370113  RH  026%=      5-min Rain = 0
KNH1 150057Z 09013KT 34/11 A2999 RMK A01 T03350114  RH  026%=      5-min Rain = 0
KNH1 150058Z 09011KT 33/11 A2999 RMK A01 T03340114  RH  026%=      5-min Rain = 0
KNH1 150059Z 09013KT 33/12 A2999 RMK A01 T03330115  RH  026%=      5-min Rain = 0
KNH1 150100Z 08018KT 33/11 A2998 RMK A01 T03330114  RH  026%=      5-min Rain = 0
KNH1 150101Z 07018G23KT 33/11 A2998 RMK A01 T03330113  RH  026%=      5-min Rain = 0
KNH1 150102Z 07016KT 33/11 A2999 RMK A01 T03330113  RH  026%=      5-min Rain = 0
KNH1 150103Z 07016KT 33/11 A2999 RMK A01 T03320113  RH  026%=      5-min Rain = 0
KNH1 150104Z 07016KT 33/11 A2999 RMK A01 T03310113  RH  026%=      5-min Rain = 0
KNH1 150105Z 07017KT 33/11 A2999 RMK A01 T03310113  RH  026%=      5-min Rain = 0
KNH1 150106Z 07015KT 33/11 A2999 RMK A01 T03310113  RH  027%=      5-min Rain = 0
KNH1 150107Z 08014KT 33/11 A2999 RMK A01 T03300113  RH  027%=      5-min Rain = 0
KNH1 150108Z 07013KT 33/11 A2999 RMK A01 T03300113  RH  027%=      5-min Rain = 0
KNH1 150109Z 07013KT 33/11 A2999 RMK A01 T03290113  RH  027%=      5-min Rain = 0
KNH1 150110Z 08016KT 33/11 A2999 RMK A01 T03290114  RH  027%=      5-min Rain = 0
KNH1 150111Z 07013G18KT 33/11 A30 RMK A01 T03290114  RH  027%=      5-min Rain = 0
KNH1 150112Z 07012KT 33/11 A30 RMK A01 T03280114  RH  027%=      5-min Rain = 0
KNH1 150113Z 07011KT 33/11 A30 RMK A01 T03280114  RH  027%=      5-min Rain = 0
KNH1 150114Z 07011G17KT 33/12 A30 RMK A01 T03270115  RH  027%=      5-min Rain = 0
KNH1 150115Z 07013KT 33/12 A30 RMK A01 T03270116  RH  027%=      5-min Rain = 0
KNH1 150116Z 07014KT 33/12 A30 RMK A01 T03270115  RH  028%=      5-min Rain = 0
KNH1 150117Z 07012KT 33/12 A30 RMK A01 T03260115  RH  028%=      5-min Rain = 0
KNH1 150118Z 07014KT 33/12 A30 RMK A01 T03260116  RH  028%=      5-min Rain = 0
KNH1 150119Z 07012KT 33/12 A30 RMK A01 T03260116  RH  028%=      5-min Rain = 0
KNH1 150120Z 07012KT 33/12 A30 RMK A01 T03250116  RH  028%=      5-min Rain = 0
KNH1 150121Z 06011KT 33/12 A30 RMK A01 T03250117  RH  028%=      5-min Rain = 0
KNH1 150122Z 07011KT 32/12 A3001 RMK A01 T03240117  RH  028%=      5-min Rain = 0
KNH1 150123Z 07011KT 32/12 A3001 RMK A01 T03240117  RH  028%=      5-min Rain = 0
KNH1 150124Z 07010KT 32/12 A3001 RMK A01 T03230118  RH  029%=      5-min Rain = 0
KNH1 150125Z 06009KT 32/12 A3001 RMK A01 T03230119  RH  029%=      5-min Rain = 0
KNH1 150126Z 06011KT 32/12 A3001 RMK A01 T03220119  RH  029%=      5-min Rain = 0
KNH1 150127Z 06010G16KT 32/12 A3001 RMK A01 T03210119  RH  029%=      5-min Rain = 0
KNH1 150128Z 06011KT 32/12 A3001 RMK A01 T03210120  RH  029%=      5-min Rain = 0
KNH1 150129Z 06013G19KT 32/12 A3001 RMK A01 T03210121  RH  029%=      5-min Rain = 0
KNH1 150130Z 06012G18KT 32/12 A3001 RMK A01 T03200121  RH  030%=      5-min Rain = 0
KNH1 150131Z 07013G18KT 32/12 A3001 RMK A01 T03200121  RH  030%=      5-min Rain = 0
KNH1 150132Z 07014KT 32/12 A3001 RMK A01 T03200121  RH  030%=      5-min Rain = 0
KNH1 150133Z 06015G22KT 32/12 A3001 RMK A01 T03190121  RH  030%=      5-min Rain = 0
KNH1 150134Z 07016KT 32/12 A3001 RMK A01 T03190121  RH  030%=      5-min Rain = 0
KNH1 150135Z 07015KT 32/12 A3001 RMK A01 T03200122  RH  030%=      5-min Rain = 0
KNH1 150136Z 07016KT 32/12 A3001 RMK A01 T03200122  RH  030%=      5-min Rain = 0
KNH1 150137Z 07014G20KT 32/12 A3001 RMK A01 T03190122  RH  030%=      5-min Rain = 0
KNH1 150138Z 07014G19KT 32/12 A3001 RMK A01 T03190122  RH  030%=      5-min Rain = 0
KNH1 150139Z 07016G21KT 32/12 A3001 RMK A01 T03180122  RH  030%=      5-min Rain = 0
KNH1 150140Z 07016G22KT 32/12 A3001 RMK A01 T03180122  RH  030%=      5-min Rain = 0
KNH1 150141Z 07014KT 32/12 A3001 RMK A01 T03180122  RH  030%=      5-min Rain = 0
KNH1 150142Z 06012KT 32/12 A3001 RMK A01 T03180122  RH  030%=      5-min Rain = 0
KNH1 150143Z 07014KT 32/12 A3001 RMK A01 T03170122  RH  030%=      5-min Rain = 0
KNH1 150144Z 07013KT 32/12 A3001 RMK A01 T03170123  RH  031%=      5-min Rain = 0
KNH1 150145Z 06011KT 32/12 A3001 RMK A01 T03170123  RH  031%=      5-min Rain = 0
KNH1 150146Z 06012KT 32/12 A3001 RMK A01 T03160123  RH  031%=      5-min Rain = 0
KNH1 150147Z 07015KT 32/12 A3001 RMK A01 T03150123  RH  031%=      5-min Rain = 0
KNH1 150148Z 07015KT 32/12 A3001 RMK A01 T03150124  RH  031%=      5-min Rain = 0
KNH1 150149Z 07014KT 32/12 A3001 RMK A01 T03150124  RH  031%=      5-min Rain = 0
KNH1 150150Z 06015KT 31/12 A3001 RMK A01 T03140124  RH  031%=      5-min Rain = 0
KNH1 150151Z 06016G23KT 31/12 A3001 RMK A01 T03140124  RH  031%=      5-min Rain = 0
KNH1 150152Z 07014G19KT 31/12 A3001 RMK A01 T03140124  RH  031%=      5-min Rain = 0
KNH1 150153Z 07017KT 31/12 A3001 RMK A01 T03130124  RH  031%=      5-min Rain = 0
KNH1 150154Z 07015KT 31/12 A3001 RMK A01 T03130124  RH  031%=      5-min Rain = 0
KNH1 150155Z 07015G21KT 31/12 A3001 RMK A01 T03130124  RH  031%=      5-min Rain = 0
KNH1 150156Z 06014KT 31/12 A3001 RMK A01 T03130124  RH  031%=      5-min Rain = 0
KNH1 150157Z 07013KT 31/12 A3001 RMK A01 T03130124  RH  031%=      5-min Rain = 0
KNH1 150158Z 06014KT 31/12 A3001 RMK A01 T03120123  RH  031%=      5-min Rain = 0
KNH1 150159Z 07014G20KT 31/12 A3001 RMK A01 T03120122  RH  031%=      5-min Rain = 0
KNH1 150200Z 07018KT 31/12 A3001 RMK A01 T03120122  RH  031%=      5-min Rain = 0
KNH1 150201Z 07015KT 31/12 A3001 RMK A01 T03120120  RH  031%=      5-min Rain = 0
KNH1 150202Z 07013KT 31/12 A3001 RMK A01 T03120120  RH  031%=      5-min Rain = 0
KNH1 150203Z 07014G19KT 31/12 A3001 RMK A01 T03110120  RH  031%=      5-min Rain = 0
KNH1 150204Z 07016KT 31/12 A3001 RMK A01 T03110119  RH  031%=      5-min Rain = 0
KNH1 150205Z 07016KT 31/12 A3001 RMK A01 T03100119  RH  031%=      5-min Rain = 0
KNH1 150206Z 07014G20KT 31/12 A3001 RMK A01 T03100119  RH  031%=      5-min Rain = 0
KNH1 150207Z 07017KT 31/12 A3001 RMK A01 T03100118  RH  031%=      5-min Rain = 0
KNH1 150208Z 07015KT 31/12 A3001 RMK A01 T03100118  RH  031%=      5-min Rain = 0
KNH1 150209Z 06013KT 31/12 A3002 RMK A01 T03100118  RH  031%=      5-min Rain = 0
KNH1 150210Z 07014KT 31/12 A3002 RMK A01 T03090118  RH  031%=      5-min Rain = 0
KNH1 150211Z 07016KT 31/12 A3002 RMK A01 T03090118  RH  031%=      5-min Rain = 0
KNH1 150212Z 06016G21KT 31/12 A3002 RMK A01 T03090118  RH  031%=      5-min Rain = 0
KNH1 150213Z 07017KT 31/12 A3002 RMK A01 T03090118  RH  031%=      5-min Rain = 0
KNH1 150214Z 07015G21KT 31/12 A3002 RMK A01 T03090117  RH  031%=      5-min Rain = 0
KNH1 150215Z 07013KT 31/12 A3002 RMK A01 T03090118  RH  031%=      5-min Rain = 0
KNH1 150216Z 06015KT 31/12 A3002 RMK A01 T03080117  RH  031%=      5-min Rain = 0
KNH1 150217Z 07013KT 31/12 A3002 RMK A01 T03080117  RH  031%=      5-min Rain = 0
KNH1 150218Z 07016G23KT 31/12 A3002 RMK A01 T03080117  RH  031%=      5-min Rain = 0
KNH1 150219Z 07015G22KT 31/12 A3002 RMK A01 T03080117  RH  031%=      5-min Rain = 0
KNH1 150220Z 07018KT 31/12 A3001 RMK A01 T03080117  RH  031%=      5-min Rain = 0
KNH1 150221Z 07015G20KT 31/12 A3002 RMK A01 T03070117  RH  031%=      5-min Rain = 0
KNH1 150222Z 07015KT 31/12 A3002 RMK A01 T03070116  RH  031%=      5-min Rain = 0
KNH1 150223Z 07016KT 31/12 A3002 RMK A01 T03070116  RH  031%=      5-min Rain = 0
KNH1 150224Z 07017KT 31/12 A3002 RMK A01 T03070116  RH  031%=      5-min Rain = 0
KNH1 150225Z 08016KT 31/12 A3002 RMK A01 T03070116  RH  031%=      5-min Rain = 0
KNH1 150226Z 07016G23KT 31/12 A3002 RMK A01 T03060116  RH  031%=      5-min Rain = 0
KNH1 150227Z 08017G22KT 31/12 A3002 RMK A01 T03070117  RH  031%=      5-min Rain = 0
KNH1 150228Z 07015KT 31/12 A3002 RMK A01 T03070117  RH  031%=      5-min Rain = 0
KNH1 150229Z 07016KT 31/12 A3002 RMK A01 T03060116  RH  031%=      5-min Rain = 0
KNH1 150230Z 08014G19KT 31/12 A3002 RMK A01 T03060117  RH  031%=      5-min Rain = 0
KNH1 150231Z 08016KT 31/12 A3003 RMK A01 T03060116  RH  031%=      5-min Rain = 0
KNH1 150232Z 08018G24KT 31/12 A3003 RMK A01 T03060117  RH  031%=      5-min Rain = 0
KNH1 150233Z 08017KT 31/12 A3003 RMK A01 T03060117  RH  031%=      5-min Rain = 0
KNH1 150234Z 08016KT 31/12 A3003 RMK A01 T03060117  RH  031%=      5-min Rain = 0
KNH1 150235Z 08019KT 31/12 A3003 RMK A01 T03060117  RH  031%=      5-min Rain = 0
KNH1 150236Z 07017KT 31/12 A3003 RMK A01 T03060117  RH  031%=      5-min Rain = 0
KNH1 150237Z 08017KT 31/12 A3003 RMK A01 T03060116  RH  031%=      5-min Rain = 0
KNH1 150238Z 08017G22KT 31/12 A3003 RMK A01 T03060117  RH  031%=      5-min Rain = 0
KNH1 150239Z 08015G21KT 31/12 A3003 RMK A01 T03060117  RH  031%=      5-min Rain = 0
KNH1 150240Z 08017G22KT 31/12 A3003 RMK A01 T03060117  RH  031%=      5-min Rain = 0
KNH1 150241Z 08015KT 31/12 A3003 RMK A01 T03060117  RH  031%=      5-min Rain = 0
KNH1 150242Z 08016G22KT 31/12 A3003 RMK A01 T03060117  RH  031%=      5-min Rain = 0
KNH1 150243Z 08016KT 31/12 A3003 RMK A01 T03060117  RH  031%=      5-min Rain = 0
KNH1 150244Z 07015KT 31/12 A3004 RMK A01 T03050117  RH  031%=      5-min Rain = 0
KNH1 150245Z 07015KT 31/12 A3004 RMK A01 T03050117  RH  031%=      5-min Rain = 0
KNH1 150246Z 08013KT 31/12 A3004 RMK A01 T03050117  RH  031%=      5-min Rain = 0
KNH1 150247Z 07012G19KT 30/12 A3004 RMK A01 T03040116  RH  031%=      5-min Rain = 0
KNH1 150248Z 08014KT 30/12 A3004 RMK A01 T03040116  RH  032%=      5-min Rain = 0
KNH1 150249Z 07013KT 30/12 A3004 RMK A01 T03040116  RH  032%=      5-min Rain = 0
KNH1 150250Z 07011KT 30/12 A3004 RMK A01 T03040116  RH  032%=      5-min Rain = 0
KNH1 150251Z 07011KT 30/12 A3005 RMK A01 T03030117  RH  032%=      5-min Rain = 0
KNH1 150252Z 06010G15KT 30/12 A3005 RMK A01 T03030116  RH  032%=      5-min Rain = 0
KNH1 150253Z 06011KT 30/12 A3005 RMK A01 T03020117  RH  032%=      5-min Rain = 0
KNH1 150254Z 06011KT 30/12 A3005 RMK A01 T03020117  RH  032%=      5-min Rain = 0
KNH1 150255Z 06013KT 30/12 A3005 RMK A01 T03030117  RH  032%=      5-min Rain = 0
KNH1 150256Z 05013KT 30/12 A3006 RMK A01 T03020117  RH  032%=      5-min Rain = 0
KNH1 150257Z 05011G16KT 30/12 A3006 RMK A01 T03020117  RH  032%=      5-min Rain = 0
KNH1 150258Z 05012KT 30/12 A3006 RMK A01 T03020117  RH  032%=      5-min Rain = 0
KNH1 150259Z 04011KT 30/12 A3006 RMK A01 T03020116  RH  032%=      5-min Rain = 0
KNH1 150300Z 04010KT 30/12 A3006 RMK A01 T03020116  RH  032%=      5-min Rain = 0
KNH1 150301Z 04011KT 30/12 A3007 RMK A01 T03020116  RH  032%=      5-min Rain = 0
KNH1 150302Z 04011KT 30/12 A3007 RMK A01 T03020116  RH  032%=      5-min Rain = 0
KNH1 150303Z 04010G15KT 30/12 A3007 RMK A01 T03020116  RH  032%=      5-min Rain = 0
KNH1 150304Z 03011G16KT 30/12 A3007 RMK A01 T03010116  RH  032%=      5-min Rain = 0
KNH1 150305Z 03010KT 30/12 A3007 RMK A01 T03020116  RH  032%=      5-min Rain = 0
KNH1 150306Z 03010KT 30/12 A3007 RMK A01 T03010115  RH  032%=      5-min Rain = 0
KNH1 150307Z 03008KT 30/12 A3007 RMK A01 T03010115  RH  032%=      5-min Rain = 0
KNH1 150308Z 03009KT 30/12 A3007 RMK A01 T03010116  RH  032%=      5-min Rain = 0
KNH1 150309Z 03010KT 30/12 A3007 RMK A01 T03000117  RH  032%=      5-min Rain = 0
KNH1 150310Z 02010KT 30/12 A3007 RMK A01 T03000117  RH  032%=      5-min Rain = 0
KNH1 150311Z 03011KT 30/12 A3007 RMK A01 T02990117  RH  032%=      5-min Rain = 0
KNH1 150312Z 03010KT 30/12 A3007 RMK A01 T02990116  RH  032%=      5-min Rain = 0
KNH1 150313Z 03011KT 30/12 A3007 RMK A01 T02990116  RH  032%=      5-min Rain = 0
KNH1 150314Z 03010KT 30/12 A3007 RMK A01 T02990116  RH  032%=      5-min Rain = 0
KNH1 150315Z 03010KT 30/12 A3007 RMK A01 T02990116  RH  032%=      5-min Rain = 0
KNH1 150316Z 03010KT 30/12 A3007 RMK A01 T02990116  RH  032%=      5-min Rain = 0
KNH1 150317Z 03011G16KT 30/12 A3007 RMK A01 T02990116  RH  032%=      5-min Rain = 0
KNH1 150318Z 04011G16KT 30/12 A3007 RMK A01 T02980116  RH  032%=      5-min Rain = 0
KNH1 150319Z 04011KT 30/12 A3007 RMK A01 T02980115  RH  032%=      5-min Rain = 0
KNH1 150320Z 04010KT 30/12 A3007 RMK A01 T02980116  RH  033%=      5-min Rain = 0
KNH1 150321Z 04013KT 30/12 A3007 RMK A01 T02970116  RH  033%=      5-min Rain = 0
KNH1 150322Z 04010KT 30/12 A3007 RMK A01 T02970116  RH  033%=      5-min Rain = 0
KNH1 150323Z 04011KT 30/12 A3007 RMK A01 T02970116  RH  033%=      5-min Rain = 0
KNH1 150324Z 04011KT 30/12 A3007 RMK A01 T02970116  RH  033%=      5-min Rain = 0
KNH1 150325Z 04011KT 30/12 A3007 RMK A01 T02970116  RH  033%=      5-min Rain = 0
KNH1 150326Z 04009KT 30/12 A3007 RMK A01 T02960116  RH  033%=      5-min Rain = 0
KNH1 150327Z 04010KT 30/12 A3007 RMK A01 T02950116  RH  033%=      5-min Rain = 0
KNH1 150328Z 03009KT 30/12 A3007 RMK A01 T02950116  RH  033%=      5-min Rain = 0
KNH1 150329Z 04009G14KT 30/12 A3007 RMK A01 T02950116  RH  033%=      5-min Rain = 0
KNH1 150330Z 03011G16KT 30/12 A3007 RMK A01 T02950116  RH  033%=      5-min Rain = 0
KNH1 150331Z 03010KT 29/12 A3008 RMK A01 T02940116  RH  033%=      5-min Rain = 0
KNH1 150332Z 03008KT 29/12 A3008 RMK A01 T02940116  RH  033%=      5-min Rain = 0
KNH1 150333Z 03008KT 29/12 A3008 RMK A01 T02930116  RH  034%=      5-min Rain = 0
KNH1 150334Z 03010KT 29/12 A3008 RMK A01 T02920116  RH  034%=      5-min Rain = 0
KNH1 150335Z 02009KT 29/12 A3008 RMK A01 T02920117  RH  034%=      5-min Rain = 0
KNH1 150336Z 02009KT 29/12 A3008 RMK A01 T02910117  RH  034%=      5-min Rain = 0
KNH1 150337Z 03009KT 29/12 A3008 RMK A01 T02900117  RH  034%=      5-min Rain = 0
KNH1 150338Z 03008KT 29/12 A3008 RMK A01 T02890117  RH  034%=      5-min Rain = 0
KNH1 150339Z 03007KT 29/12 A3007 RMK A01 T02880117  RH  035%=      5-min Rain = 0
KNH1 150340Z 03010KT 29/12 A3007 RMK A01 T02880117  RH  035%=      5-min Rain = 0
KNH1 150341Z 03009KT 29/12 A3007 RMK A01 T02880116  RH  035%=      5-min Rain = 0
KNH1 150342Z 04009KT 29/12 A3007 RMK A01 T02880116  RH  034%=      5-min Rain = 0
KNH1 150343Z 04010KT 29/12 A3007 RMK A01 T02880115  RH  034%=      5-min Rain = 0
KNH1 150344Z 04009KT 29/12 A3007 RMK A01 T02880115  RH  034%=      5-min Rain = 0
KNH1 150345Z 04009KT 29/12 A3007 RMK A01 T02890115  RH  034%=      5-min Rain = 0
KNH1 150346Z 04008KT 29/12 A3007 RMK A01 T02880115  RH  034%=      5-min Rain = 0
KNH1 150347Z 03008KT 29/12 A3007 RMK A01 T02880115  RH  034%=      5-min Rain = 0
KNH1 150348Z 03007KT 29/12 A3007 RMK A01 T02880116  RH  034%=      5-min Rain = 0
KNH1 150349Z 03006KT 29/12 A3007 RMK A01 T02870116  RH  035%=      5-min Rain = 0
KNH1 150350Z 03006KT 29/12 A3007 RMK A01 T02860116  RH  035%=      5-min Rain = 0
KNH1 150351Z 02007KT 29/12 A3007 RMK A01 T02860116  RH  035%=      5-min Rain = 0
KNH1 150352Z 03008KT 29/12 A3007 RMK A01 T02850116  RH  035%=      5-min Rain = 0
KNH1 150353Z 03007KT 29/12 A3008 RMK A01 T02850116  RH  035%=      5-min Rain = 0
KNH1 150354Z 03007KT 29/12 A3008 RMK A01 T02850116  RH  035%=      5-min Rain = 0
KNH1 150355Z 02008KT 29/12 A3008 RMK A01 T02850116  RH  035%=      5-min Rain = 0
KNH1 150356Z 02008KT 29/12 A3008 RMK A01 T02850116  RH  035%=      5-min Rain = 0
KNH1 150357Z 02007KT 29/12 A3008 RMK A01 T02850115  RH  035%=      5-min Rain = 0
KNH1 150358Z 02006KT 29/12 A3008 RMK A01 T02850115  RH  035%=      5-min Rain = 0
KNH1 150359Z 03008KT 29/12 A3008 RMK A01 T02850115  RH  035%=      5-min Rain = 0
KNH1 150400Z 01006KT 29/11 A3008 RMK A01 T02860114  RH  035%=      5-min Rain = 0
KNH1 150401Z 01006KT 29/11 A3008 RMK A01 T02860114  RH  035%=      5-min Rain = 0
KNH1 150402Z 02006KT 29/12 A3008 RMK A01 T02860115  RH  035%=      5-min Rain = 0
KNH1 150403Z 02005KT 29/11 A3008 RMK A01 T02850114  RH  035%=      5-min Rain = 0
KNH1 150404Z 02005KT 29/12 A3007 RMK A01 T02850115  RH  035%=      5-min Rain = 0
KNH1 150405Z 01005KT 29/12 A3007 RMK A01 T02850115  RH  035%=      5-min Rain = 0
KNH1 150406Z 02004KT 28/11 A3007 RMK A01 T02840114  RH  035%=      5-min Rain = 0
KNH1 150407Z 01005KT 28/12 A3007 RMK A01 T02840115  RH  035%=      5-min Rain = 0
KNH1 150408Z 02006KT 28/12 A3007 RMK A01 T02840115  RH  035%=      5-min Rain = 0
KNH1 150409Z 02006KT 28/12 A3007 RMK A01 T02840115  RH  035%=      5-min Rain = 0
KNH1 150410Z 02005KT 28/11 A3007 RMK A01 T02840114  RH  035%=      5-min Rain = 0
KNH1 150411Z 03006KT 28/11 A3007 RMK A01 T02840114  RH  035%=      5-min Rain = 0
KNH1 150412Z 02006KT 29/11 A3007 RMK A01 T02850114  RH  035%=      5-min Rain = 0
KNH1 150413Z 03006KT 29/11 A3007 RMK A01 T02850114  RH  034%=      5-min Rain = 0
KNH1 150414Z 03006KT 29/11 A3007 RMK A01 T02850114  RH  034%=      5-min Rain = 0
KNH1 150415Z 04006KT 29/11 A3007 RMK A01 T02860113  RH  034%=      5-min Rain = 0
KNH1 150416Z 04007KT 29/11 A3007 RMK A01 T02860114  RH  034%=      5-min Rain = 0
KNH1 150417Z 04006KT 29/11 A3007 RMK A01 T02860113  RH  034%=      5-min Rain = 0
KNH1 150418Z 03006KT 29/11 A3007 RMK A01 T02860114  RH  034%=      5-min Rain = 0
KNH1 150419Z 04006KT 29/11 A3007 RMK A01 T02860114  RH  034%=      5-min Rain = 0
KNH1 150420Z 03005KT 29/11 A3007 RMK A01 T02860113  RH  034%=      5-min Rain = 0
KNH1 150421Z 03006KT 29/11 A3007 RMK A01 T02860114  RH  034%=      5-min Rain = 0
KNH1 150422Z 02004KT 29/11 A3007 RMK A01 T02850114  RH  034%=      5-min Rain = 0
KNH1 150423Z 03005KT 29/11 A3007 RMK A01 T02850114  RH  035%=      5-min Rain = 0
KNH1 150424Z 03006KT 29/11 A3007 RMK A01 T02850114  RH  035%=      5-min Rain = 0
KNH1 150425Z 02005KT 29/11 A3006 RMK A01 T02850114  RH  035%=      5-min Rain = 0
KNH1 150426Z 02004KT 28/11 A3006 RMK A01 T02840114  RH  035%=      5-min Rain = 0
KNH1 150427Z 02004KT 28/12 A3006 RMK A01 T02840115  RH  035%=      5-min Rain = 0
KNH1 150428Z 02005KT 28/12 A3006 RMK A01 T02830115  RH  035%=      5-min Rain = 0
KNH1 150429Z 03005KT 28/12 A3006 RMK A01 T02830115  RH  035%=      5-min Rain = 0
KNH1 150430Z 03006KT 28/12 A3006 RMK A01 T02820115  RH  035%=      5-min Rain = 0
KNH1 150431Z 03006KT 28/12 A3006 RMK A01 T02820115  RH  035%=      5-min Rain = 0
KNH1 150432Z 03005KT 28/12 A3006 RMK A01 T02820115  RH  035%=      5-min Rain = 0
KNH1 150433Z 03005KT 28/12 A3006 RMK A01 T02820115  RH  035%=      5-min Rain = 0
KNH1 150434Z 04005KT 28/12 A3006 RMK A01 T02820115  RH  035%=      5-min Rain = 0
KNH1 150435Z 03005KT 28/12 A3006 RMK A01 T02820115  RH  035%=      5-min Rain = 0
KNH1 150436Z 03006KT 28/12 A3006 RMK A01 T02820115  RH  035%=      5-min Rain = 0
KNH1 150437Z 04006KT 28/11 A3006 RMK A01 T02810114  RH  035%=      5-min Rain = 0
KNH1 150438Z 03005KT 28/12 A3006 RMK A01 T02820115  RH  035%=      5-min Rain = 0
KNH1 150439Z 03006KT 28/12 A3006 RMK A01 T02820115  RH  035%=      5-min Rain = 0
KNH1 150440Z 03006KT 28/11 A3006 RMK A01 T02820114  RH  035%=      5-min Rain = 0
KNH1 150441Z 03005KT 28/11 A3006 RMK A01 T02820114  RH  035%=      5-min Rain = 0
KNH1 150442Z 03005KT 28/11 A3005 RMK A01 T02820114  RH  035%=      5-min Rain = 0
KNH1 150443Z 03005KT 28/11 A3005 RMK A01 T02820114  RH  035%=      5-min Rain = 0
KNH1 150444Z 04005KT 28/11 A3005 RMK A01 T02830114  RH  035%=      5-min Rain = 0
KNH1 150445Z 03004KT 28/11 A3005 RMK A01 T02830114  RH  035%=      5-min Rain = 0
KNH1 150446Z 03005KT 28/11 A3005 RMK A01 T02830114  RH  035%=      5-min Rain = 0
KNH1 150447Z 03005KT 28/11 A3005 RMK A01 T02830113  RH  035%=      5-min Rain = 0
KNH1 150448Z 03005KT 28/11 A3005 RMK A01 T02830113  RH  035%=      5-min Rain = 0
KNH1 150449Z 03005KT 28/11 A3005 RMK A01 T02830113  RH  035%=      5-min Rain = 0
KNH1 150450Z 02004KT 28/11 A3005 RMK A01 T02830113  RH  035%=      5-min Rain = 0
KNH1 150451Z 02004KT 28/11 A3005 RMK A01 T02830114  RH  035%=      5-min Rain = 0
KNH1 150452Z 01004KT 28/12 A3005 RMK A01 T02820115  RH  035%=      5-min Rain = 0
KNH1 150453Z 01005KT 28/12 A3005 RMK A01 T02820115  RH  036%=      5-min Rain = 0
KNH1 150454Z 02004KT 28/12 A3005 RMK A01 T02820115  RH  036%=      5-min Rain = 0
KNH1 150455Z 02004KT 28/12 A3005 RMK A01 T02810116  RH  036%=      5-min Rain = 0
KNH1 150456Z 01004KT 28/12 A3005 RMK A01 T02810115  RH  036%=      5-min Rain = 0
KNH1 150457Z 02004KT 28/12 A3005 RMK A01 T02810115  RH  036%=      5-min Rain = 0
KNH1 150458Z 01004KT 28/12 A3005 RMK A01 T02810115  RH  036%=      5-min Rain = 0
KNH1 150459Z 01004KT 28/12 A3005 RMK A01 T02810116  RH  036%=      5-min Rain = 0

Page generated in 0.0709 seconds.